Observation data for Palo Duro Canyon State Park Floor on 09/16/2020      Previous  Date  Next       Current Mesonet Observations  Soil Data  Daily Summary Page  Observations in Plain Language
KPD2 160500Z 12003KT 20/13 A3012 RMK A01 T01990126  RH  063%=      5-min Rain = 0
KPD2 160501Z 12003KT 20/13 A3012 RMK A01 T02000126  RH  063%=      5-min Rain = 0
KPD2 160502Z 11003KT 20/13 A3012 RMK A01 T01990127  RH  063%=      5-min Rain = 0
KPD2 160503Z 11003KT 20/13 A3012 RMK A01 T02000127  RH  063%=      5-min Rain = 0
KPD2 160504Z 11003KT 20/13 A3012 RMK A01 T01990126  RH  063%=      5-min Rain = 0
KPD2 160505Z 10003KT 20/13 A3012 RMK A01 T02000127  RH  063%=      5-min Rain = 0
KPD2 160506Z 11002KT 20/13 A3012 RMK A01 T02000127  RH  063%=      5-min Rain = 0
KPD2 160507Z 13002KT 20/13 A3012 RMK A01 T02000127  RH  063%=      5-min Rain = 0
KPD2 160508Z 13004KT 20/13 A3012 RMK A01 T02010127  RH  062%=      5-min Rain = 0
KPD2 160509Z 13003KT 20/13 A3012 RMK A01 T02020127  RH  062%=      5-min Rain = 0
KPD2 160510Z 12004KT 20/13 A3012 RMK A01 T02020127  RH  062%=      5-min Rain = 0
KPD2 160511Z 14004KT 20/13 A3012 RMK A01 T02030127  RH  062%=      5-min Rain = 0
KPD2 160512Z 13005KT 20/13 A3012 RMK A01 T02030127  RH  061%=      5-min Rain = 0
KPD2 160513Z 13004KT 20/13 A3012 RMK A01 T02030127  RH  062%=      5-min Rain = 0
KPD2 160514Z 13003KT 20/13 A3012 RMK A01 T02030127  RH  062%=      5-min Rain = 0
KPD2 160515Z 13003KT 20/13 A3012 RMK A01 T02030127  RH  062%=      5-min Rain = 0
KPD2 160516Z 14004KT 20/13 A3012 RMK A01 T02020126  RH  062%=      5-min Rain = 0
KPD2 160517Z 13004KT 20/13 A3012 RMK A01 T02020127  RH  062%=      5-min Rain = 0
KPD2 160518Z 13004KT 20/13 A3012 RMK A01 T02010126  RH  062%=      5-min Rain = 0
KPD2 160519Z 13004KT 20/13 A3012 RMK A01 T02010127  RH  062%=      5-min Rain = 0
KPD2 160520Z 14004KT 20/13 A3012 RMK A01 T02000127  RH  062%=      5-min Rain = 0
KPD2 160521Z 13004KT 20/13 A3012 RMK A01 T02000126  RH  063%=      5-min Rain = 0
KPD2 160522Z 13004KT 20/13 A3012 RMK A01 T01990126  RH  063%=      5-min Rain = 0
KPD2 160523Z 14004KT 20/13 A3012 RMK A01 T01990126  RH  063%=      5-min Rain = 0
KPD2 160524Z 14003KT 20/13 A3012 RMK A01 T01990127  RH  063%=      5-min Rain = 0
KPD2 160525Z 14003KT 20/13 A3012 RMK A01 T01980126  RH  063%=      5-min Rain = 0
KPD2 160526Z 14004KT 20/13 A3012 RMK A01 T01980126  RH  063%=      5-min Rain = 0
KPD2 160527Z 14004KT 20/13 A3012 RMK A01 T01980127  RH  063%=      5-min Rain = 0
KPD2 160528Z 14004KT 20/13 A3012 RMK A01 T01970126  RH  064%=      5-min Rain = 0
KPD2 160529Z 13004KT 20/13 A3012 RMK A01 T01970127  RH  064%=      5-min Rain = 0
KPD2 160530Z 13004KT 20/13 A3012 RMK A01 T01970126  RH  064%=      5-min Rain = 0
KPD2 160531Z 14003KT 20/13 A3012 RMK A01 T01970126  RH  064%=      5-min Rain = 0
KPD2 160532Z 14003KT 20/13 A3012 RMK A01 T01960126  RH  064%=      5-min Rain = 0
KPD2 160533Z 14003KT 20/13 A3012 RMK A01 T01960126  RH  064%=      5-min Rain = 0
KPD2 160534Z 13003KT 20/13 A3012 RMK A01 T01960126  RH  064%=      5-min Rain = 0
KPD2 160535Z 14003KT 20/13 A3012 RMK A01 T01950126  RH  064%=      5-min Rain = 0
KPD2 160536Z 14003KT 20/13 A3012 RMK A01 T01950126  RH  065%=      5-min Rain = 0
KPD2 160537Z 13004KT 20/13 A3012 RMK A01 T01950127  RH  065%=      5-min Rain = 0
KPD2 160538Z 14003KT 20/13 A3012 RMK A01 T01950127  RH  065%=      5-min Rain = 0
KPD2 160539Z 14003KT 19/13 A3012 RMK A01 T01940126  RH  065%=      5-min Rain = 0
KPD2 160540Z 14003KT 19/13 A3012 RMK A01 T01940126  RH  065%=      5-min Rain = 0
KPD2 160541Z 14003KT 19/13 A3012 RMK A01 T01940126  RH  065%=      5-min Rain = 0
KPD2 160542Z 13004KT 19/13 A3012 RMK A01 T01940126  RH  065%=      5-min Rain = 0
KPD2 160543Z 13003KT 19/13 A3012 RMK A01 T01930126  RH  065%=      5-min Rain = 0
KPD2 160544Z 13003KT 19/13 A3012 RMK A01 T01930126  RH  065%=      5-min Rain = 0
KPD2 160545Z 14004KT 19/13 A3012 RMK A01 T01920126  RH  065%=      5-min Rain = 0
KPD2 160546Z 13004KT 19/13 A3012 RMK A01 T01920126  RH  065%=      5-min Rain = 0
KPD2 160547Z 12005KT 19/13 A3012 RMK A01 T01910126  RH  066%=      5-min Rain = 0
KPD2 160548Z 12003KT 19/13 A3012 RMK A01 T01910126  RH  066%=      5-min Rain = 0
KPD2 160549Z 13004KT 19/13 A3012 RMK A01 T01900126  RH  066%=      5-min Rain = 0
KPD2 160550Z 13004KT 19/13 A3012 RMK A01 T01900126  RH  066%=      5-min Rain = 0
KPD2 160551Z 12004KT 19/13 A3012 RMK A01 T01900126  RH  066%=      5-min Rain = 0
KPD2 160552Z 12004KT 19/13 A3012 RMK A01 T01900126  RH  066%=      5-min Rain = 0
KPD2 160553Z 12004KT 19/13 A3012 RMK A01 T01900126  RH  066%=      5-min Rain = 0
KPD2 160554Z 13004KT 19/13 A3012 RMK A01 T01900126  RH  066%=      5-min Rain = 0
KPD2 160555Z 13004KT 19/13 A3012 RMK A01 T01900126  RH  066%=      5-min Rain = 0
KPD2 160556Z 13004KT 19/13 A3012 RMK A01 T01900126  RH  066%=      5-min Rain = 0
KPD2 160557Z 12003KT 19/13 A3012 RMK A01 T01900126  RH  066%=      5-min Rain = 0
KPD2 160558Z 13003KT 19/13 A3012 RMK A01 T01900126  RH  067%=      5-min Rain = 0
KPD2 160559Z 13003KT 19/13 A3012 RMK A01 T01900126  RH  067%=      5-min Rain = 0
KPD2 160600Z 14003KT 19/13 A3012 RMK A01 T01890126  RH  067%=      5-min Rain = 0
KPD2 160601Z 14003KT 19/13 A3012 RMK A01 T01890126  RH  067%=      5-min Rain = 0
KPD2 160602Z 14004KT 19/13 A3012 RMK A01 T01890126  RH  067%=      5-min Rain = 0
KPD2 160603Z 14004KT 19/13 A3012 RMK A01 T01900126  RH  067%=      5-min Rain = 0
KPD2 160604Z 14004KT 19/13 A3012 RMK A01 T01910126  RH  066%=      5-min Rain = 0
KPD2 160605Z 13004KT 19/13 A3012 RMK A01 T01920126  RH  066%=      5-min Rain = 0
KPD2 160606Z 14003KT 19/13 A3012 RMK A01 T01930126  RH  065%=      5-min Rain = 0
KPD2 160607Z 14003KT 19/13 A3012 RMK A01 T01920126  RH  065%=      5-min Rain = 0
KPD2 160608Z 13003KT 19/13 A3012 RMK A01 T01920126  RH  065%=      5-min Rain = 0
KPD2 160609Z 13003KT 19/13 A3012 RMK A01 T01920126  RH  066%=      5-min Rain = 0
KPD2 160610Z 13003KT 19/13 A3012 RMK A01 T01910126  RH  066%=      5-min Rain = 0
KPD2 160611Z 13002KT 19/13 A3012 RMK A01 T01900125  RH  066%=      5-min Rain = 0
KPD2 160612Z 13003KT 19/13 A3012 RMK A01 T01890125  RH  066%=      5-min Rain = 0
KPD2 160613Z 13003KT 19/12 A3012 RMK A01 T01880124  RH  067%=      5-min Rain = 0
KPD2 160614Z 13004KT 19/12 A3012 RMK A01 T01870124  RH  067%=      5-min Rain = 0
KPD2 160615Z 13003KT 19/13 A3012 RMK A01 T01860125  RH  067%=      5-min Rain = 0
KPD2 160616Z 13003KT 19/12 A3012 RMK A01 T01850124  RH  067%=      5-min Rain = 0
KPD2 160617Z 12004KT 18/12 A3012 RMK A01 T01840124  RH  068%=      5-min Rain = 0
KPD2 160618Z 13003KT 18/12 A3012 RMK A01 T01840124  RH  068%=      5-min Rain = 0
KPD2 160619Z 13003KT 18/12 A3012 RMK A01 T01830124  RH  068%=      5-min Rain = 0
KPD2 160620Z 13003KT 18/13 A3012 RMK A01 T01830125  RH  069%=      5-min Rain = 0
KPD2 160621Z 12003KT 18/12 A3012 RMK A01 T01830124  RH  069%=      5-min Rain = 0
KPD2 160622Z 13003KT 18/12 A3012 RMK A01 T01820124  RH  069%=      5-min Rain = 0
KPD2 160623Z 12003KT 18/12 A3012 RMK A01 T01820124  RH  069%=      5-min Rain = 0
KPD2 160624Z 12003KT 18/12 A3012 RMK A01 T01820124  RH  069%=      5-min Rain = 0
KPD2 160625Z 12004KT 18/12 A3012 RMK A01 T01820124  RH  069%=      5-min Rain = 0
KPD2 160626Z 13003KT 18/13 A3012 RMK A01 T01820125  RH  069%=      5-min Rain = 0
KPD2 160627Z 12004KT 18/12 A3012 RMK A01 T01810124  RH  069%=      5-min Rain = 0
KPD2 160628Z 12004KT 18/12 A3012 RMK A01 T01820124  RH  069%=      5-min Rain = 0
KPD2 160629Z 12003KT 18/13 A3012 RMK A01 T01810125  RH  069%=      5-min Rain = 0
KPD2 160630Z 13003KT 18/13 A3012 RMK A01 T01810125  RH  069%=      5-min Rain = 0
KPD2 160631Z 12004KT 18/12 A3012 RMK A01 T01810124  RH  069%=      5-min Rain = 0
KPD2 160632Z 12003KT 18/13 A3012 RMK A01 T01810125  RH  069%=      5-min Rain = 0
KPD2 160633Z 13004KT 18/13 A3012 RMK A01 T01810125  RH  069%=      5-min Rain = 0
KPD2 160634Z 12004KT 18/12 A3012 RMK A01 T01810124  RH  069%=      5-min Rain = 0
KPD2 160635Z 12003KT 18/13 A3012 RMK A01 T01810125  RH  070%=      5-min Rain = 0
KPD2 160636Z 13002KT 18/13 A3012 RMK A01 T01810125  RH  070%=      5-min Rain = 0
KPD2 160637Z 13003KT 18/13 A3012 RMK A01 T01810125  RH  070%=      5-min Rain = 0
KPD2 160638Z 12003KT 18/13 A3012 RMK A01 T01810125  RH  069%=      5-min Rain = 0
KPD2 160639Z 14003KT 18/12 A3012 RMK A01 T01810124  RH  069%=      5-min Rain = 0
KPD2 160640Z 13003KT 18/13 A3012 RMK A01 T01810125  RH  069%=      5-min Rain = 0
KPD2 160641Z 13003KT 18/13 A3012 RMK A01 T01810125  RH  069%=      5-min Rain = 0
KPD2 160642Z 13004KT 18/13 A3012 RMK A01 T01810125  RH  070%=      5-min Rain = 0
KPD2 160643Z 13004KT 18/13 A3012 RMK A01 T01810125  RH  070%=      5-min Rain = 0
KPD2 160644Z 13004KT 18/13 A3012 RMK A01 T01810125  RH  070%=      5-min Rain = 0
KPD2 160645Z 14004KT 18/13 A3012 RMK A01 T01820125  RH  069%=      5-min Rain = 0
KPD2 160646Z 14003KT 18/12 A3012 RMK A01 T01820124  RH  069%=      5-min Rain = 0
KPD2 160647Z 13003KT 18/12 A3012 RMK A01 T01820124  RH  069%=      5-min Rain = 0
KPD2 160648Z 13004KT 18/12 A3012 RMK A01 T01820124  RH  069%=      5-min Rain = 0
KPD2 160649Z 13003KT 18/12 A3012 RMK A01 T01810124  RH  069%=      5-min Rain = 0
KPD2 160650Z 13003KT 18/12 A3012 RMK A01 T01800124  RH  070%=      5-min Rain = 0
KPD2 160651Z 13003KT 18/12 A3012 RMK A01 T01800124  RH  070%=      5-min Rain = 0
KPD2 160652Z 13003KT 18/12 A3012 RMK A01 T01790123  RH  070%=      5-min Rain = 0
KPD2 160653Z 14004KT 18/12 A3012 RMK A01 T01790124  RH  070%=      5-min Rain = 0
KPD2 160654Z 13004KT 18/12 A3012 RMK A01 T01780124  RH  070%=      5-min Rain = 0
KPD2 160655Z 12004KT 18/12 A3012 RMK A01 T01780123  RH  070%=      5-min Rain = 0
KPD2 160656Z 12004KT 18/12 A3012 RMK A01 T01770123  RH  070%=      5-min Rain = 0
KPD2 160657Z 12004KT 18/12 A3012 RMK A01 T01770123  RH  070%=      5-min Rain = 0
KPD2 160658Z 11004KT 18/12 A3012 RMK A01 T01770123  RH  070%=      5-min Rain = 0
KPD2 160659Z 11004KT 18/12 A3012 RMK A01 T01770123  RH  070%=      5-min Rain = 0
KPD2 160700Z 11004KT 18/12 A3012 RMK A01 T01770123  RH  070%=      5-min Rain = 0
KPD2 160701Z 11004KT 18/12 A3012 RMK A01 T01770123  RH  070%=      5-min Rain = 0
KPD2 160702Z 11003KT 18/12 A3012 RMK A01 T01770123  RH  070%=      5-min Rain = 0
KPD2 160703Z 13003KT 18/12 A3012 RMK A01 T01770122  RH  070%=      5-min Rain = 0
KPD2 160704Z 14003KT 18/12 A3012 RMK A01 T01770123  RH  070%=      5-min Rain = 0
KPD2 160705Z 13004KT 18/12 A3012 RMK A01 T01780123  RH  070%=      5-min Rain = 0
KPD2 160706Z 13004KT 18/12 A3012 RMK A01 T01780123  RH  070%=      5-min Rain = 0
KPD2 160707Z 12003KT 18/12 A3012 RMK A01 T01780123  RH  070%=      5-min Rain = 0
KPD2 160708Z 12003KT 18/12 A3012 RMK A01 T01790124  RH  070%=      5-min Rain = 0
KPD2 160709Z 13003KT 18/12 A3012 RMK A01 T01780123  RH  070%=      5-min Rain = 0
KPD2 160710Z 13004KT 18/12 A3012 RMK A01 T01780123  RH  070%=      5-min Rain = 0
KPD2 160711Z 13005KT 18/12 A3012 RMK A01 T01780123  RH  070%=      5-min Rain = 0
KPD2 160712Z 12005KT 18/12 A3012 RMK A01 T01780123  RH  070%=      5-min Rain = 0
KPD2 160713Z 11004KT 18/12 A3012 RMK A01 T01780123  RH  070%=      5-min Rain = 0
KPD2 160714Z 11004KT 18/12 A3012 RMK A01 T01770123  RH  071%=      5-min Rain = 0
KPD2 160715Z 12005KT 18/12 A3011 RMK A01 T01780123  RH  071%=      5-min Rain = 0
KPD2 160716Z 10003KT 18/12 A3011 RMK A01 T01770123  RH  070%=      5-min Rain = 0
KPD2 160717Z 10004KT 18/12 A3011 RMK A01 T01770123  RH  070%=      5-min Rain = 0
KPD2 160718Z 09003KT 18/12 A3011 RMK A01 T01780124  RH  071%=      5-min Rain = 0
KPD2 160719Z 11003KT 18/12 A3011 RMK A01 T01790124  RH  070%=      5-min Rain = 0
KPD2 160720Z 11003KT 18/12 A3011 RMK A01 T01790124  RH  070%=      5-min Rain = 0
KPD2 160721Z 11004KT 18/12 A3011 RMK A01 T01790124  RH  070%=      5-min Rain = 0
KPD2 160722Z 10004KT 18/12 A3011 RMK A01 T01800124  RH  070%=      5-min Rain = 0
KPD2 160723Z 10004KT 18/13 A3011 RMK A01 T01800125  RH  070%=      5-min Rain = 0
KPD2 160724Z 10003KT 18/13 A3011 RMK A01 T01810125  RH  070%=      5-min Rain = 0
KPD2 160725Z 10003KT 18/13 A3011 RMK A01 T01810125  RH  069%=      5-min Rain = 0
KPD2 160726Z 12003KT 18/13 A3011 RMK A01 T01820125  RH  069%=      5-min Rain = 0
KPD2 160727Z 11003KT 18/13 A3011 RMK A01 T01820125  RH  069%=      5-min Rain = 0
KPD2 160728Z 11003KT 18/13 A3011 RMK A01 T01830125  RH  069%=      5-min Rain = 0
KPD2 160729Z 11003KT 18/13 A3011 RMK A01 T01830125  RH  069%=      5-min Rain = 0
KPD2 160730Z 12004KT 18/13 A3011 RMK A01 T01840125  RH  069%=      5-min Rain = 0
KPD2 160731Z 12004KT 18/13 A3011 RMK A01 T01840125  RH  068%=      5-min Rain = 0
KPD2 160732Z 13005KT 18/13 A3011 RMK A01 T01840125  RH  068%=      5-min Rain = 0
KPD2 160733Z 14004KT 19/13 A3011 RMK A01 T01850125  RH  068%=      5-min Rain = 0
KPD2 160734Z 13005KT 19/13 A3011 RMK A01 T01850125  RH  068%=      5-min Rain = 0
KPD2 160735Z 12005KT 18/13 A3011 RMK A01 T01840125  RH  068%=      5-min Rain = 0
KPD2 160736Z 11003KT 18/12 A3011 RMK A01 T01840124  RH  068%=      5-min Rain = 0
KPD2 160737Z 12004KT 18/12 A3011 RMK A01 T01830124  RH  068%=      5-min Rain = 0
KPD2 160738Z 11004KT 18/12 A3011 RMK A01 T01820123  RH  069%=      5-min Rain = 0
KPD2 160739Z 12004KT 18/12 A3011 RMK A01 T01810123  RH  069%=      5-min Rain = 0
KPD2 160740Z 12004KT 18/12 A3011 RMK A01 T01810123  RH  069%=      5-min Rain = 0
KPD2 160741Z 12004KT 18/12 A3011 RMK A01 T01800123  RH  069%=      5-min Rain = 0
KPD2 160742Z 12004KT 18/12 A3011 RMK A01 T01800123  RH  069%=      5-min Rain = 0
KPD2 160743Z 12004KT 18/12 A3011 RMK A01 T01790123  RH  069%=      5-min Rain = 0
KPD2 160744Z 12004KT 18/12 A3011 RMK A01 T01780123  RH  070%=      5-min Rain = 0
KPD2 160745Z 12005KT 18/12 A3011 RMK A01 T01780123  RH  070%=      5-min Rain = 0
KPD2 160746Z 12004KT 18/12 A3011 RMK A01 T01770123  RH  070%=      5-min Rain = 0
KPD2 160747Z 12003KT 18/12 A3011 RMK A01 T01770123  RH  071%=      5-min Rain = 0
KPD2 160748Z 11004KT 18/12 A3011 RMK A01 T01770123  RH  071%=      5-min Rain = 0
KPD2 160749Z 12004KT 18/12 A3011 RMK A01 T01770123  RH  071%=      5-min Rain = 0
KPD2 160750Z 12004KT 18/12 A3011 RMK A01 T01770124  RH  071%=      5-min Rain = 0
KPD2 160751Z 12004KT 18/12 A3011 RMK A01 T01760123  RH  071%=      5-min Rain = 0
KPD2 160752Z 12004KT 18/12 A3011 RMK A01 T01760123  RH  071%=      5-min Rain = 0
KPD2 160753Z 12004KT 18/12 A3011 RMK A01 T01760123  RH  071%=      5-min Rain = 0
KPD2 160754Z 11005KT 18/12 A3011 RMK A01 T01760124  RH  071%=      5-min Rain = 0
KPD2 160755Z 12004KT 18/12 A3011 RMK A01 T01760124  RH  071%=      5-min Rain = 0
KPD2 160756Z 13003KT 18/12 A3011 RMK A01 T01760123  RH  071%=      5-min Rain = 0
KPD2 160757Z 13004KT 18/12 A3011 RMK A01 T01750123  RH  071%=      5-min Rain = 0
KPD2 160758Z 13004KT 18/12 A3011 RMK A01 T01750123  RH  071%=      5-min Rain = 0
KPD2 160759Z 13004KT 18/12 A3011 RMK A01 T01750123  RH  072%=      5-min Rain = 0
KPD2 160800Z 12003KT 18/12 A3011 RMK A01 T01750123  RH  072%=      5-min Rain = 0
KPD2 160801Z 13003KT 17/12 A3011 RMK A01 T01740123  RH  072%=      5-min Rain = 0
KPD2 160802Z 13004KT 17/12 A3011 RMK A01 T01740123  RH  072%=      5-min Rain = 0
KPD2 160803Z 12004KT 17/12 A3011 RMK A01 T01740123  RH  072%=      5-min Rain = 0
KPD2 160804Z 12003KT 17/12 A3011 RMK A01 T01740123  RH  072%=      5-min Rain = 0
KPD2 160805Z 13003KT 17/12 A3011 RMK A01 T01730123  RH  072%=      5-min Rain = 0
KPD2 160806Z 12004KT 17/12 A301 RMK A01 T01730123  RH  072%=      5-min Rain = 0
KPD2 160807Z 12004KT 17/12 A301 RMK A01 T01730123  RH  072%=      5-min Rain = 0
KPD2 160808Z 12004KT 17/12 A301 RMK A01 T01730123  RH  072%=      5-min Rain = 0
KPD2 160809Z 12004KT 17/12 A301 RMK A01 T01730123  RH  072%=      5-min Rain = 0
KPD2 160810Z 12004KT 17/12 A301 RMK A01 T01740123  RH  072%=      5-min Rain = 0
KPD2 160811Z 10004KT 17/12 A301 RMK A01 T01730122  RH  072%=      5-min Rain = 0
KPD2 160812Z 09004KT 17/12 A301 RMK A01 T01730122  RH  072%=      5-min Rain = 0
KPD2 160813Z 10005KT 17/12 A301 RMK A01 T01740123  RH  072%=      5-min Rain = 0
KPD2 160814Z 10004KT 18/12 A301 RMK A01 T01750124  RH  072%=      5-min Rain = 0
KPD2 160815Z 10005KT 18/12 A301 RMK A01 T01770124  RH  071%=      5-min Rain = 0
KPD2 160816Z 10004KT 18/12 A301 RMK A01 T01780124  RH  071%=      5-min Rain = 0
KPD2 160817Z 09005KT 18/13 A301 RMK A01 T01790125  RH  070%=      5-min Rain = 0
KPD2 160818Z 10007KT 18/13 A301 RMK A01 T01810125  RH  070%=      5-min Rain = 0
KPD2 160819Z 10006KT 18/13 A301 RMK A01 T01840126  RH  069%=      5-min Rain = 0
KPD2 160820Z 10006KT 19/13 A301 RMK A01 T01860126  RH  068%=      5-min Rain = 0
KPD2 160821Z 10005KT 19/13 A301 RMK A01 T01880126  RH  067%=      5-min Rain = 0
KPD2 160822Z 09005KT 19/13 A301 RMK A01 T01890126  RH  067%=      5-min Rain = 0
KPD2 160823Z 09005KT 19/13 A301 RMK A01 T01900125  RH  066%=      5-min Rain = 0
KPD2 160824Z 09005KT 19/13 A301 RMK A01 T01900125  RH  066%=      5-min Rain = 0
KPD2 160825Z 10006KT 19/13 A301 RMK A01 T01900125  RH  066%=      5-min Rain = 0
KPD2 160826Z 10006KT 19/12 A301 RMK A01 T01910124  RH  065%=      5-min Rain = 0
KPD2 160827Z 10006KT 19/12 A301 RMK A01 T01910124  RH  065%=      5-min Rain = 0
KPD2 160828Z 09005KT 19/12 A301 RMK A01 T01910124  RH  065%=      5-min Rain = 0
KPD2 160829Z 11005KT 19/12 A301 RMK A01 T01910124  RH  065%=      5-min Rain = 0
KPD2 160830Z 10005KT 19/12 A301 RMK A01 T01910123  RH  065%=      5-min Rain = 0
KPD2 160831Z 11004KT 19/12 A301 RMK A01 T01910124  RH  065%=      5-min Rain = 0
KPD2 160832Z 10005KT 19/12 A301 RMK A01 T01900123  RH  065%=      5-min Rain = 0
KPD2 160833Z 11005KT 19/12 A301 RMK A01 T01900124  RH  065%=      5-min Rain = 0
KPD2 160834Z 13003KT 19/12 A301 RMK A01 T01900123  RH  065%=      5-min Rain = 0
KPD2 160835Z 12003KT 19/12 A301 RMK A01 T01880122  RH  066%=      5-min Rain = 0
KPD2 160836Z 11003KT 19/12 A301 RMK A01 T01860122  RH  066%=      5-min Rain = 0
KPD2 160837Z 13003KT 19/12 A301 RMK A01 T01850122  RH  067%=      5-min Rain = 0
KPD2 160838Z 13004KT 18/12 A301 RMK A01 T01830122  RH  067%=      5-min Rain = 0
KPD2 160839Z 11004KT 18/12 A301 RMK A01 T01810122  RH  068%=      5-min Rain = 0
KPD2 160840Z 10003KT 18/12 A301 RMK A01 T01800122  RH  068%=      5-min Rain = 0
KPD2 160841Z 10003KT 18/12 A301 RMK A01 T01790121  RH  069%=      5-min Rain = 0
KPD2 160842Z 12003KT 18/12 A301 RMK A01 T01780121  RH  069%=      5-min Rain = 0
KPD2 160843Z 12003KT 18/12 A301 RMK A01 T01770121  RH  070%=      5-min Rain = 0
KPD2 160844Z 12002KT 18/12 A301 RMK A01 T01760121  RH  070%=      5-min Rain = 0
KPD2 160845Z 12003KT 18/12 A301 RMK A01 T01750121  RH  070%=      5-min Rain = 0
KPD2 160846Z 09003KT 18/12 A301 RMK A01 T01750121  RH  071%=      5-min Rain = 0
KPD2 160847Z 14002KT 17/12 A301 RMK A01 T01740121  RH  071%=      5-min Rain = 0
KPD2 160848Z 15002KT 17/12 A301 RMK A01 T01740121  RH  071%=      5-min Rain = 0
KPD2 160849Z 15001KT 17/12 A301 RMK A01 T01740121  RH  071%=      5-min Rain = 0
KPD2 160850Z 15001KT 17/12 A301 RMK A01 T01730121  RH  071%=      5-min Rain = 0
KPD2 160851Z 12002KT 17/12 A301 RMK A01 T01730120  RH  071%=      5-min Rain = 0
KPD2 160852Z 12002KT 17/12 A301 RMK A01 T01720120  RH  071%=      5-min Rain = 0
KPD2 160853Z 13002KT 17/12 A301 RMK A01 T01710120  RH  072%=      5-min Rain = 0
KPD2 160854Z 13003KT 17/12 A301 RMK A01 T01710120  RH  072%=      5-min Rain = 0
KPD2 160855Z 12003KT 17/12 A301 RMK A01 T01700120  RH  072%=      5-min Rain = 0
KPD2 160856Z 12003KT 17/12 A3009 RMK A01 T01690119  RH  072%=      5-min Rain = 0
KPD2 160857Z 12003KT 17/12 A3009 RMK A01 T01680119  RH  073%=      5-min Rain = 0
KPD2 160858Z 13003KT 17/12 A3009 RMK A01 T01670119  RH  073%=      5-min Rain = 0
KPD2 160859Z 12003KT 17/12 A3009 RMK A01 T01660118  RH  073%=      5-min Rain = 0
KPD2 160900Z 13002KT 17/12 A3009 RMK A01 T01660118  RH  073%=      5-min Rain = 0
KPD2 160901Z 14003KT 17/12 A3009 RMK A01 T01650119  RH  074%=      5-min Rain = 0
KPD2 160902Z 14003KT 17/12 A3009 RMK A01 T01650119  RH  074%=      5-min Rain = 0
KPD2 160903Z 14003KT 16/12 A3009 RMK A01 T01640118  RH  074%=      5-min Rain = 0
KPD2 160904Z 12003KT 16/12 A3009 RMK A01 T01630118  RH  074%=      5-min Rain = 0
KPD2 160905Z 11003KT 16/12 A3009 RMK A01 T01630118  RH  075%=      5-min Rain = 0
KPD2 160906Z 11003KT 16/12 A3009 RMK A01 T01620118  RH  075%=      5-min Rain = 0
KPD2 160907Z 10003KT 16/12 A3009 RMK A01 T01620118  RH  075%=      5-min Rain = 0
KPD2 160908Z 13003KT 16/12 A3009 RMK A01 T01620119  RH  076%=      5-min Rain = 0
KPD2 160909Z 14002KT 16/12 A3009 RMK A01 T01630119  RH  075%=      5-min Rain = 0
KPD2 160910Z 15002KT 16/12 A3009 RMK A01 T01630118  RH  075%=      5-min Rain = 0
KPD2 160911Z 17002KT 16/12 A3009 RMK A01 T01630119  RH  075%=      5-min Rain = 0
KPD2 160912Z 20002KT 16/12 A3009 RMK A01 T01630119  RH  075%=      5-min Rain = 0
KPD2 160913Z 18001KT 16/12 A3009 RMK A01 T01620118  RH  075%=      5-min Rain = 0
KPD2 160914Z 15001KT 16/12 A3009 RMK A01 T01610118  RH  076%=      5-min Rain = 0
KPD2 160915Z 13002KT 16/12 A3009 RMK A01 T01600118  RH  076%=      5-min Rain = 0
KPD2 160916Z 13001KT 16/12 A3009 RMK A01 T01600118  RH  076%=      5-min Rain = 0
KPD2 160917Z 13002KT 16/12 A3009 RMK A01 T01590118  RH  076%=      5-min Rain = 0
KPD2 160918Z 12002KT 16/12 A3009 RMK A01 T01590118  RH  077%=      5-min Rain = 0
KPD2 160919Z 13002KT 16/12 A3009 RMK A01 T01580118  RH  077%=      5-min Rain = 0
KPD2 160920Z 14002KT 16/12 A3009 RMK A01 T01580117  RH  077%=      5-min Rain = 0
KPD2 160921Z 17002KT 16/12 A3009 RMK A01 T01570116  RH  077%=      5-min Rain = 0
KPD2 160922Z 18001KT 16/12 A3009 RMK A01 T01560116  RH  077%=      5-min Rain = 0
KPD2 160923Z 18000KT 16/12 A3009 RMK A01 T01550116  RH  077%=      5-min Rain = 0
KPD2 160924Z 00000KT 15/12 A3009 RMK A01 T01540115  RH  078%=      5-min Rain = 0
KPD2 160925Z 00000KT 15/12 A3009 RMK A01 T01530117  RH  079%=      5-min Rain = 0
KPD2 160926Z 16000KT 15/12 A3009 RMK A01 T01530117  RH  079%=      5-min Rain = 0
KPD2 160927Z 16000KT 15/12 A3009 RMK A01 T01530117  RH  079%=      5-min Rain = 0
KPD2 160928Z 16001KT 15/12 A3009 RMK A01 T01530117  RH  079%=      5-min Rain = 0
KPD2 160929Z 14003KT 15/12 A3009 RMK A01 T01530117  RH  079%=      5-min Rain = 0
KPD2 160930Z 12002KT 15/12 A3008 RMK A01 T01520117  RH  079%=      5-min Rain = 0
KPD2 160931Z 10003KT 15/12 A3008 RMK A01 T01530118  RH  080%=      5-min Rain = 0
KPD2 160932Z 10002KT 15/12 A3008 RMK A01 T01530118  RH  080%=      5-min Rain = 0
KPD2 160933Z 11002KT 15/12 A3008 RMK A01 T01530118  RH  079%=      5-min Rain = 0
KPD2 160934Z 13002KT 15/12 A3008 RMK A01 T01540118  RH  079%=      5-min Rain = 0
KPD2 160935Z 12002KT 15/12 A3008 RMK A01 T01530117  RH  079%=      5-min Rain = 0
KPD2 160936Z 13002KT 15/12 A3008 RMK A01 T01530115  RH  078%=      5-min Rain = 0
KPD2 160937Z 13002KT 15/12 A3008 RMK A01 T01530116  RH  078%=      5-min Rain = 0
KPD2 160938Z 12002KT 15/12 A3008 RMK A01 T01530116  RH  079%=      5-min Rain = 0
KPD2 160939Z 12003KT 15/12 A3008 RMK A01 T01530116  RH  079%=      5-min Rain = 0
KPD2 160940Z 12003KT 15/12 A3008 RMK A01 T01530117  RH  079%=      5-min Rain = 0
KPD2 160941Z 12002KT 15/12 A3008 RMK A01 T01530117  RH  079%=      5-min Rain = 0
KPD2 160942Z 12003KT 15/12 A3008 RMK A01 T01530117  RH  079%=      5-min Rain = 0
KPD2 160943Z 12003KT 15/12 A3008 RMK A01 T01530118  RH  080%=      5-min Rain = 0
KPD2 160944Z 11002KT 15/12 A3008 RMK A01 T01530118  RH  080%=      5-min Rain = 0
KPD2 160945Z 11001KT 15/12 A3008 RMK A01 T01530116  RH  079%=      5-min Rain = 0
KPD2 160946Z 13002KT 15/12 A3008 RMK A01 T01520115  RH  079%=      5-min Rain = 0
KPD2 160947Z 15002KT 15/12 A3008 RMK A01 T01520116  RH  079%=      5-min Rain = 0
KPD2 160948Z 15000KT 15/12 A3008 RMK A01 T01520115  RH  078%=      5-min Rain = 0
KPD2 160949Z 00000KT 15/11 A3008 RMK A01 T01510114  RH  079%=      5-min Rain = 0
KPD2 160950Z 13000KT 15/12 A3008 RMK A01 T01500115  RH  079%=      5-min Rain = 0
KPD2 160951Z 00000KT 15/12 A3009 RMK A01 T01500115  RH  080%=      5-min Rain = 0
KPD2 160952Z 23001KT 15/12 A3009 RMK A01 T01490115  RH  080%=      5-min Rain = 0
KPD2 160953Z 23002KT 15/11 A3009 RMK A01 T01490114  RH  080%=      5-min Rain = 0
KPD2 160954Z 21002KT 15/11 A3009 RMK A01 T01480114  RH  080%=      5-min Rain = 0
KPD2 160955Z 20002KT 15/12 A3009 RMK A01 T01480116  RH  081%=      5-min Rain = 0
KPD2 160956Z 20001KT 15/12 A3009 RMK A01 T01480116  RH  081%=      5-min Rain = 0
KPD2 160957Z 17001KT 15/12 A3009 RMK A01 T01480116  RH  081%=      5-min Rain = 0
KPD2 160958Z 14002KT 15/12 A3009 RMK A01 T01480117  RH  081%=      5-min Rain = 0
KPD2 160959Z 13002KT 15/12 A3009 RMK A01 T01480117  RH  081%=      5-min Rain = 0
KPD2 161000Z 13001KT 15/12 A3009 RMK A01 T01480116  RH  081%=      5-min Rain = 0
KPD2 161001Z 13002KT 15/12 A3009 RMK A01 T01480116  RH  081%=      5-min Rain = 0
KPD2 161002Z 14002KT 15/12 A3009 RMK A01 T01480117  RH  081%=      5-min Rain = 0
KPD2 161003Z 14001KT 15/12 A3009 RMK A01 T01480117  RH  081%=      5-min Rain = 0
KPD2 161004Z 14001KT 15/12 A3009 RMK A01 T01490117  RH  081%=      5-min Rain = 0
KPD2 161005Z 14001KT 15/12 A3009 RMK A01 T01490116  RH  081%=      5-min Rain = 0
KPD2 161006Z 14002KT 15/12 A3009 RMK A01 T01490116  RH  081%=      5-min Rain = 0
KPD2 161007Z 14002KT 15/12 A3009 RMK A01 T01490116  RH  081%=      5-min Rain = 0
KPD2 161008Z 14002KT 15/12 A3009 RMK A01 T01490116  RH  081%=      5-min Rain = 0
KPD2 161009Z 12003KT 15/12 A3009 RMK A01 T01490116  RH  081%=      5-min Rain = 0
KPD2 161010Z 12003KT 15/12 A3009 RMK A01 T01490116  RH  081%=      5-min Rain = 0
KPD2 161011Z 11003KT 15/12 A3009 RMK A01 T01490116  RH  081%=      5-min Rain = 0
KPD2 161012Z 11003KT 15/12 A3009 RMK A01 T01490116  RH  081%=      5-min Rain = 0
KPD2 161013Z 12002KT 15/12 A3009 RMK A01 T01490116  RH  081%=      5-min Rain = 0
KPD2 161014Z 12002KT 15/12 A3009 RMK A01 T01490116  RH  081%=      5-min Rain = 0
KPD2 161015Z 12001KT 15/11 A3009 RMK A01 T01480114  RH  080%=      5-min Rain = 0
KPD2 161016Z 00000KT 15/11 A3009 RMK A01 T01470112  RH  079%=      5-min Rain = 0
KPD2 161017Z 00000KT 15/11 A3009 RMK A01 T01460113  RH  080%=      5-min Rain = 0
KPD2 161018Z 00000KT 15/11 A3009 RMK A01 T01450113  RH  081%=      5-min Rain = 0
KPD2 161019Z 00000KT 15/11 A3009 RMK A01 T01450113  RH  081%=      5-min Rain = 0
KPD2 161020Z 00000KT 14/11 A3009 RMK A01 T01440113  RH  082%=      5-min Rain = 0
KPD2 161021Z 00000KT 14/11 A3009 RMK A01 T01430113  RH  082%=      5-min Rain = 0
KPD2 161022Z 11000KT 14/11 A3009 RMK A01 T01420113  RH  083%=      5-min Rain = 0
KPD2 161023Z 00000KT 14/11 A3009 RMK A01 T01420114  RH  083%=      5-min Rain = 0
KPD2 161024Z 12001KT 14/11 A3009 RMK A01 T01420114  RH  083%=      5-min Rain = 0
KPD2 161025Z 13000KT 14/12 A3009 RMK A01 T01420115  RH  084%=      5-min Rain = 0
KPD2 161026Z 00000KT 14/11 A3009 RMK A01 T01430114  RH  083%=      5-min Rain = 0
KPD2 161027Z 00000KT 14/11 A3009 RMK A01 T01420112  RH  082%=      5-min Rain = 0
KPD2 161028Z 00000KT 14/11 A3009 RMK A01 T01420113  RH  083%=      5-min Rain = 0
KPD2 161029Z 00000KT 14/11 A3009 RMK A01 T01420114  RH  083%=      5-min Rain = 0
KPD2 161030Z 00000KT 14/12 A3009 RMK A01 T01420115  RH  084%=      5-min Rain = 0
KPD2 161031Z 00000KT 14/12 A3009 RMK A01 T01420115  RH  084%=      5-min Rain = 0
KPD2 161032Z 00000KT 14/11 A3009 RMK A01 T01420114  RH  083%=      5-min Rain = 0
KPD2 161033Z 00000KT 14/11 A3009 RMK A01 T01420114  RH  084%=      5-min Rain = 0
KPD2 161034Z 00000KT 14/12 A3009 RMK A01 T01420115  RH  084%=      5-min Rain = 0
KPD2 161035Z 00000KT 14/12 A3009 RMK A01 T01410115  RH  084%=      5-min Rain = 0
KPD2 161036Z 05000KT 14/12 A3009 RMK A01 T01410115  RH  084%=      5-min Rain = 0
KPD2 161037Z 00000KT 14/12 A3009 RMK A01 T01410116  RH  084%=      5-min Rain = 0
KPD2 161038Z 00000KT 14/12 A3009 RMK A01 T01410115  RH  084%=      5-min Rain = 0
KPD2 161039Z 05001KT 14/11 A3009 RMK A01 T01410113  RH  083%=      5-min Rain = 0
KPD2 161040Z 00000KT 14/11 A3009 RMK A01 T01400112  RH  083%=      5-min Rain = 0
KPD2 161041Z 00000KT 14/11 A3009 RMK A01 T01400113  RH  084%=      5-min Rain = 0
KPD2 161042Z 00000KT 14/11 A3009 RMK A01 T01390112  RH  084%=      5-min Rain = 0
KPD2 161043Z 03000KT 14/11 A3009 RMK A01 T01380111  RH  084%=      5-min Rain = 0
KPD2 161044Z 34000KT 14/11 A3009 RMK A01 T01370110  RH  084%=      5-min Rain = 0
KPD2 161045Z 34001KT 14/11 A3009 RMK A01 T01360110  RH  084%=      5-min Rain = 0
KPD2 161046Z 36002KT 14/11 A3009 RMK A01 T01360109  RH  084%=      5-min Rain = 0
KPD2 161047Z 00002KT 14/11 A3009 RMK A01 T01350108  RH  084%=      5-min Rain = 0
KPD2 161048Z 00001KT 13/11 A3009 RMK A01 T01340109  RH  085%=      5-min Rain = 0
KPD2 161049Z 00001KT 13/11 A3009 RMK A01 T01340111  RH  086%=      5-min Rain = 0
KPD2 161050Z 00001KT 14/11 A3009 RMK A01 T01350114  RH  087%=      5-min Rain = 0
KPD2 161051Z 00001KT 14/12 A3009 RMK A01 T01360115  RH  087%=      5-min Rain = 0
KPD2 161052Z 00001KT 14/11 A3009 RMK A01 T01360113  RH  086%=      5-min Rain = 0
KPD2 161053Z 00001KT 14/11 A3009 RMK A01 T01360114  RH  087%=      5-min Rain = 0
KPD2 161054Z 00001KT 14/12 A3009 RMK A01 T01360115  RH  087%=      5-min Rain = 0
KPD2 161055Z 00000KT 14/11 A3009 RMK A01 T01360113  RH  086%=      5-min Rain = 0
KPD2 161056Z 00001KT 14/11 A3009 RMK A01 T01360112  RH  085%=      5-min Rain = 0
KPD2 161057Z 00000KT 14/11 A3009 RMK A01 T01350112  RH  086%=      5-min Rain = 0
KPD2 161058Z 28001KT 14/12 A3009 RMK A01 T01360115  RH  087%=      5-min Rain = 0
KPD2 161059Z 21001KT 14/12 A3009 RMK A01 T01390116  RH  086%=      5-min Rain = 0
KPD2 161100Z 00000KT 14/11 A3009 RMK A01 T01390113  RH  084%=      5-min Rain = 0
KPD2 161101Z 00000KT 14/11 A3009 RMK A01 T01390113  RH  084%=      5-min Rain = 0
KPD2 161102Z 11000KT 14/11 A3009 RMK A01 T01390114  RH  085%=      5-min Rain = 0
KPD2 161103Z 12003KT 14/12 A3009 RMK A01 T01410117  RH  085%=      5-min Rain = 0
KPD2 161104Z 14002KT 14/12 A3009 RMK A01 T01410115  RH  084%=      5-min Rain = 0
KPD2 161105Z 13001KT 15/12 A3009 RMK A01 T01450117  RH  084%=      5-min Rain = 0
KPD2 161106Z 18002KT 14/11 A3009 RMK A01 T01440112  RH  081%=      5-min Rain = 0
KPD2 161107Z 18002KT 14/11 A3009 RMK A01 T01440113  RH  082%=      5-min Rain = 0
KPD2 161108Z 17002KT 14/11 A3009 RMK A01 T01440113  RH  082%=      5-min Rain = 0
KPD2 161109Z 18003KT 14/11 A3009 RMK A01 T01440112  RH  081%=      5-min Rain = 0
KPD2 161110Z 22003KT 14/11 A3009 RMK A01 T01430111  RH  081%=      5-min Rain = 0
KPD2 161111Z 18003KT 14/11 A3009 RMK A01 T01430112  RH  082%=      5-min Rain = 0
KPD2 161112Z 17001KT 14/12 A3009 RMK A01 T01430115  RH  083%=      5-min Rain = 0
KPD2 161113Z 20002KT 15/12 A3009 RMK A01 T01450115  RH  082%=      5-min Rain = 0
KPD2 161114Z 23002KT 15/11 A3009 RMK A01 T01450111  RH  080%=      5-min Rain = 0
KPD2 161115Z 25000KT 14/11 A3009 RMK A01 T01420109  RH  080%=      5-min Rain = 0
KPD2 161116Z 25000KT 14/11 A3009 RMK A01 T01410108  RH  081%=      5-min Rain = 0
KPD2 161117Z 00000KT 14/11 A3009 RMK A01 T01400108  RH  081%=      5-min Rain = 0
KPD2 161118Z 25000KT 14/11 A3009 RMK A01 T01380108  RH  082%=      5-min Rain = 0
KPD2 161119Z 25000KT 14/11 A3009 RMK A01 T01370108  RH  082%=      5-min Rain = 0
KPD2 161120Z 25001KT 14/11 A3009 RMK A01 T01370109  RH  083%=      5-min Rain = 0
KPD2 161121Z 25000KT 14/11 A3009 RMK A01 T01360108  RH  083%=      5-min Rain = 0
KPD2 161122Z 00000KT 14/11 A3009 RMK A01 T01350107  RH  083%=      5-min Rain = 0
KPD2 161123Z 16001KT 14/11 A3009 RMK A01 T01350110  RH  085%=      5-min Rain = 0
KPD2 161124Z 23001KT 14/11 A3009 RMK A01 T01360110  RH  084%=      5-min Rain = 0
KPD2 161125Z 26001KT 14/11 A3009 RMK A01 T01360109  RH  084%=      5-min Rain = 0
KPD2 161126Z 27002KT 14/11 A3009 RMK A01 T01350108  RH  084%=      5-min Rain = 0
KPD2 161127Z 27001KT 13/11 A3009 RMK A01 T01340109  RH  084%=      5-min Rain = 0
KPD2 161128Z 27002KT 14/11 A3009 RMK A01 T01350110  RH  085%=      5-min Rain = 0
KPD2 161129Z 27002KT 14/11 A3009 RMK A01 T01350110  RH  085%=      5-min Rain = 0
KPD2 161130Z 27002KT 14/11 A3009 RMK A01 T01350111  RH  085%=      5-min Rain = 0
KPD2 161131Z 27001KT 14/11 A3009 RMK A01 T01360111  RH  085%=      5-min Rain = 0
KPD2 161132Z 27000KT 14/11 A3009 RMK A01 T01360111  RH  085%=      5-min Rain = 0
KPD2 161133Z 27001KT 14/11 A3009 RMK A01 T01360111  RH  085%=      5-min Rain = 0
KPD2 161134Z 28001KT 14/11 A3009 RMK A01 T01350110  RH  085%=      5-min Rain = 0
KPD2 161135Z 28000KT 14/11 A3009 RMK A01 T01350111  RH  085%=      5-min Rain = 0
KPD2 161136Z 27000KT 14/11 A3009 RMK A01 T01350110  RH  085%=      5-min Rain = 0
KPD2 161137Z 28001KT 14/11 A3009 RMK A01 T01350110  RH  085%=      5-min Rain = 0
KPD2 161138Z 28001KT 13/11 A3009 RMK A01 T01340109  RH  085%=      5-min Rain = 0
KPD2 161139Z 28001KT 13/11 A3009 RMK A01 T01340110  RH  085%=      5-min Rain = 0
KPD2 161140Z 28001KT 14/11 A3009 RMK A01 T01350112  RH  086%=      5-min Rain = 0
KPD2 161141Z 28001KT 14/11 A3009 RMK A01 T01350110  RH  085%=      5-min Rain = 0
KPD2 161142Z 28001KT 13/11 A3009 RMK A01 T01340109  RH  085%=      5-min Rain = 0
KPD2 161143Z 28002KT 13/11 A3009 RMK A01 T01340109  RH  085%=      5-min Rain = 0
KPD2 161144Z 28001KT 13/11 A3009 RMK A01 T01330109  RH  085%=      5-min Rain = 0
KPD2 161145Z 28001KT 13/11 A3009 RMK A01 T01330109  RH  085%=      5-min Rain = 0
KPD2 161146Z 28000KT 13/11 A3009 RMK A01 T01330109  RH  085%=      5-min Rain = 0
KPD2 161147Z 00000KT 13/11 A3009 RMK A01 T01330109  RH  086%=      5-min Rain = 0
KPD2 161148Z 00000KT 13/11 A3009 RMK A01 T01330109  RH  086%=      5-min Rain = 0
KPD2 161149Z 00000KT 13/11 A3009 RMK A01 T01330110  RH  086%=      5-min Rain = 0
KPD2 161150Z 25002KT 13/11 A3009 RMK A01 T01320110  RH  086%=      5-min Rain = 0
KPD2 161151Z 24001KT 13/11 A3009 RMK A01 T01320108  RH  086%=      5-min Rain = 0
KPD2 161152Z 25001KT 13/11 A3009 RMK A01 T01320109  RH  086%=      5-min Rain = 0
KPD2 161153Z 27002KT 13/11 A3009 RMK A01 T01320109  RH  086%=      5-min Rain = 0
KPD2 161154Z 27002KT 13/11 A3009 RMK A01 T01320110  RH  086%=      5-min Rain = 0
KPD2 161155Z 29002KT 13/11 A3009 RMK A01 T01320110  RH  086%=      5-min Rain = 0
KPD2 161156Z 29002KT 13/11 A3009 RMK A01 T01320110  RH  086%=      5-min Rain = 0
KPD2 161157Z 29002KT 13/11 A301 RMK A01 T01320110  RH  087%=      5-min Rain = 0
KPD2 161158Z 30001KT 13/11 A301 RMK A01 T01320110  RH  087%=      5-min Rain = 0
KPD2 161159Z 29001KT 13/11 A301 RMK A01 T01320110  RH  087%=      5-min Rain = 0
KPD2 161200Z 30000KT 13/11 A301 RMK A01 T01320111  RH  087%=      5-min Rain = 0
KPD2 161201Z 30001KT 13/11 A301 RMK A01 T01320110  RH  087%=      5-min Rain = 0
KPD2 161202Z 29001KT 13/11 A301 RMK A01 T01320110  RH  087%=      5-min Rain = 0
KPD2 161203Z 29001KT 13/11 A301 RMK A01 T01310109  RH  086%=      5-min Rain = 0
KPD2 161204Z 31002KT 13/11 A301 RMK A01 T01310109  RH  087%=      5-min Rain = 0
KPD2 161205Z 32003KT 13/11 A301 RMK A01 T01310109  RH  087%=      5-min Rain = 0
KPD2 161206Z 33002KT 13/11 A301 RMK A01 T01310109  RH  087%=      5-min Rain = 0
KPD2 161207Z 33002KT 13/11 A301 RMK A01 T01300109  RH  087%=      5-min Rain = 0
KPD2 161208Z 34003KT 13/11 A301 RMK A01 T01300108  RH  087%=      5-min Rain = 0
KPD2 161209Z 34002KT 13/11 A301 RMK A01 T01300109  RH  087%=      5-min Rain = 0
KPD2 161210Z 33002KT 13/11 A301 RMK A01 T01290108  RH  087%=      5-min Rain = 0
KPD2 161211Z 32002KT 13/11 A301 RMK A01 T01290108  RH  087%=      5-min Rain = 0
KPD2 161212Z 33002KT 13/11 A301 RMK A01 T01290108  RH  087%=      5-min Rain = 0
KPD2 161213Z 31003KT 13/11 A301 RMK A01 T01280108  RH  087%=      5-min Rain = 0
KPD2 161214Z 33003KT 13/11 A301 RMK A01 T01290109  RH  088%=      5-min Rain = 0
KPD2 161215Z 34003KT 13/11 A301 RMK A01 T01290108  RH  087%=      5-min Rain = 0
KPD2 161216Z 32003KT 13/11 A301 RMK A01 T01290109  RH  087%=      5-min Rain = 0
KPD2 161217Z 31003KT 13/11 A301 RMK A01 T01300109  RH  087%=      5-min Rain = 0
KPD2 161218Z 32003KT 13/11 A301 RMK A01 T01300108  RH  087%=      5-min Rain = 0
KPD2 161219Z 33002KT 13/11 A301 RMK A01 T01300108  RH  086%=      5-min Rain = 0
KPD2 161220Z 31002KT 13/11 A301 RMK A01 T01300108  RH  086%=      5-min Rain = 0
KPD2 161221Z 30003KT 13/11 A301 RMK A01 T01300108  RH  087%=      5-min Rain = 0
KPD2 161222Z 29002KT 13/11 A301 RMK A01 T01300108  RH  086%=      5-min Rain = 0
KPD2 161223Z 30002KT 13/11 A301 RMK A01 T01300108  RH  086%=      5-min Rain = 0
KPD2 161224Z 29002KT 13/11 A301 RMK A01 T01300107  RH  086%=      5-min Rain = 0
KPD2 161225Z 28002KT 13/11 A301 RMK A01 T01290107  RH  086%=      5-min Rain = 0
KPD2 161226Z 28002KT 13/11 A301 RMK A01 T01290106  RH  086%=      5-min Rain = 0
KPD2 161227Z 29002KT 13/11 A301 RMK A01 T01280106  RH  086%=      5-min Rain = 0
KPD2 161228Z 30002KT 13/11 A301 RMK A01 T01280106  RH  086%=      5-min Rain = 0
KPD2 161229Z 30002KT 13/11 A301 RMK A01 T01270105  RH  087%=      5-min Rain = 0
KPD2 161230Z 30002KT 13/10 A301 RMK A01 T01260104  RH  087%=      5-min Rain = 0
KPD2 161231Z 30003KT 13/10 A301 RMK A01 T01250104  RH  087%=      5-min Rain = 0
KPD2 161232Z 31003KT 12/10 A301 RMK A01 T01240103  RH  087%=      5-min Rain = 0
KPD2 161233Z 32002KT 12/10 A301 RMK A01 T01230103  RH  087%=      5-min Rain = 0
KPD2 161234Z 32002KT 12/10 A301 RMK A01 T01230103  RH  088%=      5-min Rain = 0
KPD2 161235Z 31002KT 12/10 A301 RMK A01 T01220104  RH  088%=      5-min Rain = 0
KPD2 161236Z 30003KT 12/10 A301 RMK A01 T01220104  RH  088%=      5-min Rain = 0
KPD2 161237Z 30004KT 12/10 A301 RMK A01 T01220104  RH  089%=      5-min Rain = 0
KPD2 161238Z 30003KT 12/10 A301 RMK A01 T01220104  RH  089%=      5-min Rain = 0
KPD2 161239Z 30003KT 12/11 A301 RMK A01 T01220105  RH  089%=      5-min Rain = 0
KPD2 161240Z 30003KT 12/11 A301 RMK A01 T01230105  RH  089%=      5-min Rain = 0
KPD2 161241Z 30003KT 12/11 A301 RMK A01 T01230105  RH  089%=      5-min Rain = 0
KPD2 161242Z 30003KT 12/10 A301 RMK A01 T01230104  RH  089%=      5-min Rain = 0
KPD2 161243Z 31002KT 12/11 A301 RMK A01 T01230105  RH  088%=      5-min Rain = 0
KPD2 161244Z 32002KT 12/10 A301 RMK A01 T01230104  RH  088%=      5-min Rain = 0
KPD2 161245Z 31003KT 12/10 A301 RMK A01 T01220104  RH  089%=      5-min Rain = 0
KPD2 161246Z 30003KT 12/10 A301 RMK A01 T01220104  RH  089%=      5-min Rain = 0
KPD2 161247Z 31002KT 12/10 A3011 RMK A01 T01220104  RH  089%=      5-min Rain = 0
KPD2 161248Z 32003KT 12/10 A3011 RMK A01 T01220104  RH  089%=      5-min Rain = 0
KPD2 161249Z 33003KT 12/10 A3011 RMK A01 T01220104  RH  089%=      5-min Rain = 0
KPD2 161250Z 35002KT 12/10 A3011 RMK A01 T01220104  RH  089%=      5-min Rain = 0
KPD2 161251Z 35002KT 12/10 A3011 RMK A01 T01220103  RH  089%=      5-min Rain = 0
KPD2 161252Z 35002KT 12/10 A3011 RMK A01 T01220104  RH  089%=      5-min Rain = 0
KPD2 161253Z 35003KT 12/10 A3011 RMK A01 T01220104  RH  089%=      5-min Rain = 0
KPD2 161254Z 33003KT 12/10 A3011 RMK A01 T01220104  RH  089%=      5-min Rain = 0
KPD2 161255Z 33003KT 12/11 A3011 RMK A01 T01220105  RH  089%=      5-min Rain = 0
KPD2 161256Z 34003KT 12/11 A3011 RMK A01 T01230106  RH  089%=      5-min Rain = 0
KPD2 161257Z 33003KT 12/11 A3011 RMK A01 T01230106  RH  089%=      5-min Rain = 0
KPD2 161258Z 34003KT 12/11 A3011 RMK A01 T01240106  RH  089%=      5-min Rain = 0
KPD2 161259Z 33003KT 12/11 A3011 RMK A01 T01240106  RH  089%=      5-min Rain = 0
KPD2 161300Z 33003KT 13/11 A3011 RMK A01 T01250107  RH  089%=      5-min Rain = 0
KPD2 161301Z 32004KT 13/11 A3011 RMK A01 T01260107  RH  089%=      5-min Rain = 0
KPD2 161302Z 31003KT 13/11 A3011 RMK A01 T01280108  RH  088%=      5-min Rain = 0
KPD2 161303Z 30003KT 13/11 A3011 RMK A01 T01280107  RH  087%=      5-min Rain = 0
KPD2 161304Z 30003KT 13/11 A3011 RMK A01 T01280106  RH  086%=      5-min Rain = 0
KPD2 161305Z 30003KT 13/11 A3011 RMK A01 T01280106  RH  086%=      5-min Rain = 0
KPD2 161306Z 30002KT 13/11 A3011 RMK A01 T01290106  RH  086%=      5-min Rain = 0
KPD2 161307Z 30003KT 13/11 A3011 RMK A01 T01290106  RH  086%=      5-min Rain = 0
KPD2 161308Z 30003KT 13/11 A3011 RMK A01 T01290106  RH  086%=      5-min Rain = 0
KPD2 161309Z 30002KT 13/11 A3011 RMK A01 T01280106  RH  086%=      5-min Rain = 0
KPD2 161310Z 29002KT 13/11 A3011 RMK A01 T01290106  RH  086%=      5-min Rain = 0
KPD2 161311Z 29002KT 13/11 A3011 RMK A01 T01280106  RH  086%=      5-min Rain = 0
KPD2 161312Z 29002KT 13/11 A3011 RMK A01 T01280106  RH  086%=      5-min Rain = 0
KPD2 161313Z 30002KT 13/11 A3011 RMK A01 T01290106  RH  086%=      5-min Rain = 0
KPD2 161314Z 31002KT 13/11 A3011 RMK A01 T01280106  RH  086%=      5-min Rain = 0
KPD2 161315Z 31002KT 13/11 A3011 RMK A01 T01290106  RH  086%=      5-min Rain = 0
KPD2 161316Z 31002KT 13/11 A3011 RMK A01 T01290106  RH  086%=      5-min Rain = 0
KPD2 161317Z 32002KT 13/11 A3011 RMK A01 T01290106  RH  086%=      5-min Rain = 0
KPD2 161318Z 31002KT 13/11 A3011 RMK A01 T01290105  RH  086%=      5-min Rain = 0
KPD2 161319Z 32002KT 13/11 A3012 RMK A01 T01290105  RH  085%=      5-min Rain = 0
KPD2 161320Z 32003KT 13/11 A3012 RMK A01 T01290105  RH  085%=      5-min Rain = 0
KPD2 161321Z 32003KT 13/11 A3012 RMK A01 T01290105  RH  085%=      5-min Rain = 0
KPD2 161322Z 32003KT 13/11 A3012 RMK A01 T01290105  RH  085%=      5-min Rain = 0
KPD2 161323Z 33002KT 13/11 A3012 RMK A01 T01290105  RH  086%=      5-min Rain = 0
KPD2 161324Z 33003KT 13/11 A3012 RMK A01 T01290105  RH  086%=      5-min Rain = 0
KPD2 161325Z 32002KT 13/11 A3011 RMK A01 T01290106  RH  086%=      5-min Rain = 0
KPD2 161326Z 31002KT 13/11 A3011 RMK A01 T01300106  RH  086%=      5-min Rain = 0
KPD2 161327Z 31002KT 13/11 A3011 RMK A01 T01310107  RH  085%=      5-min Rain = 0
KPD2 161328Z 31002KT 13/11 A3011 RMK A01 T01320107  RH  085%=      5-min Rain = 0
KPD2 161329Z 32002KT 13/11 A3011 RMK A01 T01320108  RH  085%=      5-min Rain = 0
KPD2 161330Z 32002KT 13/11 A3011 RMK A01 T01330108  RH  085%=      5-min Rain = 0
KPD2 161331Z 32002KT 13/11 A3011 RMK A01 T01340108  RH  085%=      5-min Rain = 0
KPD2 161332Z 33002KT 14/11 A3011 RMK A01 T01350108  RH  084%=      5-min Rain = 0
KPD2 161333Z 34002KT 14/11 A3011 RMK A01 T01350109  RH  084%=      5-min Rain = 0
KPD2 161334Z 35002KT 14/11 A3011 RMK A01 T01360110  RH  084%=      5-min Rain = 0
KPD2 161335Z 35003KT 14/11 A3011 RMK A01 T01370110  RH  084%=      5-min Rain = 0
KPD2 161336Z 00003KT 14/11 A3011 RMK A01 T01380110  RH  083%=      5-min Rain = 0
KPD2 161337Z 00003KT 14/11 A3011 RMK A01 T01390111  RH  083%=      5-min Rain = 0
KPD2 161338Z 01003KT 14/11 A3011 RMK A01 T01400112  RH  083%=      5-min Rain = 0
KPD2 161339Z 01003KT 14/11 A3011 RMK A01 T01410112  RH  083%=      5-min Rain = 0
KPD2 161340Z 35003KT 14/11 A3011 RMK A01 T01420112  RH  082%=      5-min Rain = 0
KPD2 161341Z 35004KT 14/11 A3011 RMK A01 T01430112  RH  082%=      5-min Rain = 0
KPD2 161342Z 35003KT 14/11 A3011 RMK A01 T01440112  RH  081%=      5-min Rain = 0
KPD2 161343Z 35003KT 15/11 A3011 RMK A01 T01450111  RH  080%=      5-min Rain = 0
KPD2 161344Z 34003KT 15/11 A3011 RMK A01 T01460111  RH  080%=      5-min Rain = 0
KPD2 161345Z 34003KT 15/11 A3011 RMK A01 T01460111  RH  079%=      5-min Rain = 0
KPD2 161346Z 34002KT 15/11 A3011 RMK A01 T01480112  RH  079%=      5-min Rain = 0
KPD2 161347Z 34002KT 15/11 A3011 RMK A01 T01480111  RH  079%=      5-min Rain = 0
KPD2 161348Z 36003KT 15/11 A3011 RMK A01 T01490112  RH  078%=      5-min Rain = 0
KPD2 161349Z 36002KT 15/11 A3011 RMK A01 T01500113  RH  079%=      5-min Rain = 0
KPD2 161350Z 00001KT 15/11 A3011 RMK A01 T01510113  RH  078%=      5-min Rain = 0
KPD2 161351Z 36002KT 15/11 A3011 RMK A01 T01510112  RH  078%=      5-min Rain = 0
KPD2 161352Z 36002KT 15/11 A3011 RMK A01 T01520113  RH  077%=      5-min Rain = 0
KPD2 161353Z 36003KT 15/11 A3011 RMK A01 T01520113  RH  077%=      5-min Rain = 0
KPD2 161354Z 36003KT 15/11 A3011 RMK A01 T01530113  RH  077%=      5-min Rain = 0
KPD2 161355Z 00003KT 15/11 A3011 RMK A01 T01540113  RH  076%=      5-min Rain = 0
KPD2 161356Z 36003KT 16/11 A3011 RMK A01 T01550113  RH  076%=      5-min Rain = 0
KPD2 161357Z 35003KT 16/11 A3011 RMK A01 T01560114  RH  076%=      5-min Rain = 0
KPD2 161358Z 01002KT 16/11 A3011 RMK A01 T01570114  RH  075%=      5-min Rain = 0
KPD2 161359Z 00002KT 16/11 A3011 RMK A01 T01580113  RH  075%=      5-min Rain = 0
KPD2 161400Z 00002KT 16/11 A3011 RMK A01 T01590112  RH  074%=      5-min Rain = 0
KPD2 161401Z 36002KT 16/11 A3011 RMK A01 T01590112  RH  073%=      5-min Rain = 0
KPD2 161402Z 35001KT 16/11 A3011 RMK A01 T01600111  RH  073%=      5-min Rain = 0
KPD2 161403Z 00000KT 16/11 A3011 RMK A01 T01600111  RH  073%=      5-min Rain = 0
KPD2 161404Z 00000KT 16/11 A3011 RMK A01 T01610111  RH  072%=      5-min Rain = 0
KPD2 161405Z 29001KT 16/11 A3011 RMK A01 T01610112  RH  072%=      5-min Rain = 0
KPD2 161406Z 29001KT 16/11 A3011 RMK A01 T01620112  RH  072%=      5-min Rain = 0
KPD2 161407Z 30001KT 16/11 A3011 RMK A01 T01630112  RH  072%=      5-min Rain = 0
KPD2 161408Z 31002KT 16/11 A3011 RMK A01 T01630111  RH  071%=      5-min Rain = 0
KPD2 161409Z 33002KT 16/11 A3011 RMK A01 T01630111  RH  071%=      5-min Rain = 0
KPD2 161410Z 33001KT 16/11 A3011 RMK A01 T01640112  RH  071%=      5-min Rain = 0
KPD2 161411Z 32001KT 16/11 A3011 RMK A01 T01640112  RH  071%=      5-min Rain = 0
KPD2 161412Z 31002KT 17/11 A3011 RMK A01 T01650113  RH  071%=      5-min Rain = 0
KPD2 161413Z 30002KT 17/11 A3011 RMK A01 T01670114  RH  071%=      5-min Rain = 0
KPD2 161414Z 29001KT 17/11 A3011 RMK A01 T01670113  RH  070%=      5-min Rain = 0
KPD2 161415Z 33002KT 17/11 A3011 RMK A01 T01690113  RH  070%=      5-min Rain = 0
KPD2 161416Z 33001KT 17/11 A3011 RMK A01 T01690113  RH  069%=      5-min Rain = 0
KPD2 161417Z 32002KT 17/11 A3011 RMK A01 T01700113  RH  069%=      5-min Rain = 0
KPD2 161418Z 32001KT 17/11 A3012 RMK A01 T01700114  RH  069%=      5-min Rain = 0
KPD2 161419Z 29001KT 17/11 A3012 RMK A01 T01700114  RH  069%=      5-min Rain = 0
KPD2 161420Z 29001KT 17/11 A3012 RMK A01 T01710113  RH  069%=      5-min Rain = 0
KPD2 161421Z 31002KT 17/11 A3012 RMK A01 T01720114  RH  069%=      5-min Rain = 0
KPD2 161422Z 31002KT 17/11 A3012 RMK A01 T01720114  RH  068%=      5-min Rain = 0
KPD2 161423Z 32002KT 17/11 A3012 RMK A01 T01730114  RH  068%=      5-min Rain = 0
KPD2 161424Z 28002KT 17/11 A3012 RMK A01 T01740114  RH  068%=      5-min Rain = 0
KPD2 161425Z 27002KT 17/11 A3012 RMK A01 T01740113  RH  067%=      5-min Rain = 0
KPD2 161426Z 28001KT 17/11 A3012 RMK A01 T01740114  RH  067%=      5-min Rain = 0
KPD2 161427Z 27001KT 18/11 A3012 RMK A01 T01750113  RH  067%=      5-min Rain = 0
KPD2 161428Z 26001KT 18/11 A3012 RMK A01 T01750113  RH  067%=      5-min Rain = 0
KPD2 161429Z 27002KT 18/11 A3012 RMK A01 T01750113  RH  067%=      5-min Rain = 0
KPD2 161430Z 28002KT 18/11 A3012 RMK A01 T01760113  RH  066%=      5-min Rain = 0
KPD2 161431Z 28002KT 18/11 A3012 RMK A01 T01760112  RH  066%=      5-min Rain = 0
KPD2 161432Z 29001KT 18/11 A3012 RMK A01 T01770112  RH  065%=      5-min Rain = 0
KPD2 161433Z 28001KT 18/11 A3012 RMK A01 T01770111  RH  065%=      5-min Rain = 0
KPD2 161434Z 27001KT 18/11 A3012 RMK A01 T01780112  RH  065%=      5-min Rain = 0
KPD2 161435Z 26002KT 18/11 A3012 RMK A01 T01790111  RH  065%=      5-min Rain = 0
KPD2 161436Z 27001KT 18/11 A3012 RMK A01 T01790111  RH  065%=      5-min Rain = 0
KPD2 161437Z 25001KT 18/11 A3012 RMK A01 T01790112  RH  065%=      5-min Rain = 0
KPD2 161438Z 30002KT 18/11 A3012 RMK A01 T01800113  RH  065%=      5-min Rain = 0
KPD2 161439Z 31003KT 18/11 A3012 RMK A01 T01820112  RH  064%=      5-min Rain = 0
KPD2 161440Z 33003KT 18/11 A3012 RMK A01 T01820109  RH  062%=      5-min Rain = 0
KPD2 161441Z 33002KT 18/11 A3012 RMK A01 T01820110  RH  063%=      5-min Rain = 0
KPD2 161442Z 31003KT 18/11 A3012 RMK A01 T01820108  RH  062%=      5-min Rain = 0
KPD2 161443Z 31002KT 18/11 A3012 RMK A01 T01820107  RH  062%=      5-min Rain = 0
KPD2 161444Z 30003KT 18/11 A3012 RMK A01 T01820108  RH  062%=      5-min Rain = 0
KPD2 161445Z 30002KT 18/11 A3012 RMK A01 T01810109  RH  062%=      5-min Rain = 0
KPD2 161446Z 31002KT 18/11 A3012 RMK A01 T01810110  RH  063%=      5-min Rain = 0
KPD2 161447Z 31002KT 18/11 A3012 RMK A01 T01830111  RH  063%=      5-min Rain = 0
KPD2 161448Z 29002KT 18/11 A3012 RMK A01 T01840112  RH  063%=      5-min Rain = 0
KPD2 161449Z 30003KT 19/11 A3012 RMK A01 T01850110  RH  062%=      5-min Rain = 0
KPD2 161450Z 28001KT 19/11 A3012 RMK A01 T01860111  RH  062%=      5-min Rain = 0
KPD2 161451Z 28002KT 19/11 A3012 RMK A01 T01860109  RH  061%=      5-min Rain = 0
KPD2 161452Z 28001KT 19/11 A3012 RMK A01 T01860109  RH  061%=      5-min Rain = 0
KPD2 161453Z 29001KT 19/11 A3012 RMK A01 T01860111  RH  061%=      5-min Rain = 0
KPD2 161454Z 31003KT 19/11 A3012 RMK A01 T01870110  RH  061%=      5-min Rain = 0
KPD2 161455Z 32002KT 19/11 A3012 RMK A01 T01870110  RH  061%=      5-min Rain = 0
KPD2 161456Z 35001KT 19/11 A3012 RMK A01 T01870110  RH  061%=      5-min Rain = 0
KPD2 161457Z 35001KT 19/11 A3012 RMK A01 T01880110  RH  061%=      5-min Rain = 0
KPD2 161458Z 36001KT 19/11 A3012 RMK A01 T01870110  RH  061%=      5-min Rain = 0
KPD2 161459Z 32002KT 19/11 A3012 RMK A01 T01880111  RH  061%=      5-min Rain = 0
KPD2 161500Z 33002KT 19/11 A3012 RMK A01 T01880110  RH  060%=      5-min Rain = 0
KPD2 161501Z 34001KT 19/11 A3012 RMK A01 T01890110  RH  060%=      5-min Rain = 0
KPD2 161502Z 01002KT 19/11 A3012 RMK A01 T01890112  RH  061%=      5-min Rain = 0
KPD2 161503Z 01002KT 19/11 A3012 RMK A01 T01920112  RH  060%=      5-min Rain = 0
KPD2 161504Z 01002KT 19/11 A3012 RMK A01 T01930112  RH  059%=      5-min Rain = 0
KPD2 161505Z 02001KT 20/11 A3012 RMK A01 T01950112  RH  059%=      5-min Rain = 0
KPD2 161506Z 03000KT 20/11 A3013 RMK A01 T01970114  RH  059%=      5-min Rain = 0
KPD2 161507Z 03000KT 20/11 A3013 RMK A01 T01980114  RH  058%=      5-min Rain = 0
KPD2 161508Z 34002KT 20/12 A3013 RMK A01 T02000115  RH  058%=      5-min Rain = 0
KPD2 161509Z 34002KT 20/11 A3013 RMK A01 T02010113  RH  057%=      5-min Rain = 0
KPD2 161510Z 01003KT 20/11 A3013 RMK A01 T02010113  RH  057%=      5-min Rain = 0
KPD2 161511Z 35002KT 20/11 A3013 RMK A01 T02010114  RH  057%=      5-min Rain = 0
KPD2 161512Z 35003KT 20/11 A3013 RMK A01 T02020114  RH  057%=      5-min Rain = 0
KPD2 161513Z 33002KT 20/12 A3013 RMK A01 T02020115  RH  057%=      5-min Rain = 0
KPD2 161514Z 28003KT 20/12 A3013 RMK A01 T02030115  RH  057%=      5-min Rain = 0
KPD2 161515Z 28003KT 20/12 A3013 RMK A01 T02030115  RH  057%=      5-min Rain = 0
KPD2 161516Z 25002KT 20/12 A3013 RMK A01 T02040115  RH  057%=      5-min Rain = 0
KPD2 161517Z 27004KT 21/12 A3013 RMK A01 T02050118  RH  057%=      5-min Rain = 0
KPD2 161518Z 31003KT 21/12 A3013 RMK A01 T02070117  RH  057%=      5-min Rain = 0
KPD2 161519Z 27002KT 21/12 A3013 RMK A01 T02080118  RH  056%=      5-min Rain = 0
KPD2 161520Z 30002KT 21/12 A3013 RMK A01 T02090118  RH  056%=      5-min Rain = 0
KPD2 161521Z 31003KT 21/12 A3013 RMK A01 T02100118  RH  055%=      5-min Rain = 0
KPD2 161522Z 35002KT 21/12 A3013 RMK A01 T02100117  RH  055%=      5-min Rain = 0
KPD2 161523Z 34002KT 21/12 A3013 RMK A01 T02100117  RH  055%=      5-min Rain = 0
KPD2 161524Z 30002KT 21/12 A3013 RMK A01 T02100117  RH  055%=      5-min Rain = 0
KPD2 161525Z 26002KT 21/12 A3013 RMK A01 T02100117  RH  055%=      5-min Rain = 0
KPD2 161526Z 28003KT 21/12 A3013 RMK A01 T02110119  RH  055%=      5-min Rain = 0
KPD2 161527Z 32003KT 21/12 A3013 RMK A01 T02120117  RH  054%=      5-min Rain = 0
KPD2 161528Z 36002KT 21/12 A3013 RMK A01 T02130119  RH  055%=      5-min Rain = 0
KPD2 161529Z 36001KT 22/12 A3013 RMK A01 T02150120  RH  055%=      5-min Rain = 0
KPD2 161530Z 27001KT 22/12 A3013 RMK A01 T02170120  RH  054%=      5-min Rain = 0
KPD2 161531Z 25001KT 22/12 A3013 RMK A01 T02190120  RH  054%=      5-min Rain = 0
KPD2 161532Z 29003KT 22/12 A3013 RMK A01 T02210121  RH  053%=      5-min Rain = 0
KPD2 161533Z 29003KT 22/12 A3013 RMK A01 T02230120  RH  052%=      5-min Rain = 0
KPD2 161534Z 30003KT 22/12 A3013 RMK A01 T02240121  RH  052%=      5-min Rain = 0
KPD2 161535Z 28002KT 23/12 A3013 RMK A01 T02250121  RH  052%=      5-min Rain = 0
KPD2 161536Z 01001KT 23/12 A3013 RMK A01 T02250121  RH  052%=      5-min Rain = 0
KPD2 161537Z 00001KT 23/12 A3013 RMK A01 T02260122  RH  052%=      5-min Rain = 0
KPD2 161538Z 28003KT 23/12 A3013 RMK A01 T02280121  RH  051%=      5-min Rain = 0
KPD2 161539Z 27004KT 23/12 A3013 RMK A01 T02270120  RH  051%=      5-min Rain = 0
KPD2 161540Z 27002KT 23/12 A3013 RMK A01 T02250121  RH  052%=      5-min Rain = 0
KPD2 161541Z 25002KT 23/12 A3013 RMK A01 T02250121  RH  052%=      5-min Rain = 0
KPD2 161542Z 25002KT 23/12 A3013 RMK A01 T02250121  RH  052%=      5-min Rain = 0
KPD2 161543Z 32002KT 23/12 A3013 RMK A01 T02250121  RH  052%=      5-min Rain = 0
KPD2 161544Z 23001KT 23/12 A3013 RMK A01 T02250122  RH  052%=      5-min Rain = 0
KPD2 161545Z 27003KT 23/12 A3013 RMK A01 T02250121  RH  052%=      5-min Rain = 0
KPD2 161546Z 28003KT 23/12 A3013 RMK A01 T02260120  RH  051%=      5-min Rain = 0
KPD2 161547Z 26002KT 23/12 A3013 RMK A01 T02270120  RH  051%=      5-min Rain = 0
KPD2 161548Z 23002KT 23/12 A3013 RMK A01 T02270120  RH  051%=      5-min Rain = 0
KPD2 161549Z 25002KT 23/12 A3013 RMK A01 T02280121  RH  051%=      5-min Rain = 0
KPD2 161550Z 24004KT 23/12 A3013 RMK A01 T02290122  RH  051%=      5-min Rain = 0
KPD2 161551Z 25004KT 23/12 A3013 RMK A01 T02310123  RH  051%=      5-min Rain = 0
KPD2 161552Z 26002KT 23/12 A3013 RMK A01 T02310122  RH  050%=      5-min Rain = 0
KPD2 161553Z 28003KT 23/12 A3013 RMK A01 T02330124  RH  050%=      5-min Rain = 0
KPD2 161554Z 30003KT 24/12 A3013 RMK A01 T02350124  RH  050%=      5-min Rain = 0
KPD2 161555Z 32002KT 24/12 A3013 RMK A01 T02360122  RH  049%=      5-min Rain = 0
KPD2 161556Z 28004KT 24/12 A3013 RMK A01 T02370122  RH  049%=      5-min Rain = 0
KPD2 161557Z 30005KT 24/12 A3013 RMK A01 T02380122  RH  048%=      5-min Rain = 0
KPD2 161558Z 29003KT 24/12 A3013 RMK A01 T02380119  RH  047%=      5-min Rain = 0
KPD2 161559Z 29005KT 24/12 A3013 RMK A01 T02380120  RH  048%=      5-min Rain = 0
KPD2 161600Z 29004KT 24/12 A3013 RMK A01 T02380119  RH  047%=      5-min Rain = 0
KPD2 161601Z 31002KT 24/12 A3013 RMK A01 T02390121  RH  048%=      5-min Rain = 0
KPD2 161602Z 30005KT 24/12 A3013 RMK A01 T02410121  RH  047%=      5-min Rain = 0
KPD2 161603Z 30003KT 24/12 A3013 RMK A01 T02430119  RH  046%=      5-min Rain = 0
KPD2 161604Z 25003KT 24/12 A3013 RMK A01 T02430119  RH  046%=      5-min Rain = 0
KPD2 161605Z 28004KT 24/12 A3013 RMK A01 T02430119  RH  046%=      5-min Rain = 0
KPD2 161606Z 27004KT 24/12 A3013 RMK A01 T02440119  RH  046%=      5-min Rain = 0
KPD2 161607Z 25003KT 24/12 A3013 RMK A01 T02430118  RH  046%=      5-min Rain = 0
KPD2 161608Z 25004KT 24/12 A3012 RMK A01 T02440119  RH  046%=      5-min Rain = 0
KPD2 161609Z 25005KT 25/12 A3012 RMK A01 T02450117  RH  045%=      5-min Rain = 0
KPD2 161610Z 26004KT 25/12 A3012 RMK A01 T02460117  RH  044%=      5-min Rain = 0
KPD2 161611Z 28004KT 25/12 A3013 RMK A01 T02460117  RH  044%=      5-min Rain = 0
KPD2 161612Z 26004KT 25/12 A3013 RMK A01 T02450118  RH  045%=      5-min Rain = 0
KPD2 161613Z 30002KT 25/12 A3013 RMK A01 T02460119  RH  045%=      5-min Rain = 0
KPD2 161614Z 33003KT 25/12 A3013 RMK A01 T02490121  RH  045%=      5-min Rain = 0
KPD2 161615Z 00003KT 25/12 A3012 RMK A01 T02520122  RH  044%=      5-min Rain = 0
KPD2 161616Z 35002KT 25/12 A3013 RMK A01 T02540120  RH  043%=      5-min Rain = 0
KPD2 161617Z 32000KT 26/12 A3012 RMK A01 T02550120  RH  043%=      5-min Rain = 0
KPD2 161618Z 26003KT 26/12 A3012 RMK A01 T02550119  RH  043%=      5-min Rain = 0
KPD2 161619Z 24002KT 25/12 A3012 RMK A01 T02540117  RH  042%=      5-min Rain = 0
KPD2 161620Z 23001KT 25/12 A3012 RMK A01 T02530117  RH  043%=      5-min Rain = 0
KPD2 161621Z 29002KT 25/12 A3012 RMK A01 T02530117  RH  043%=      5-min Rain = 0
KPD2 161622Z 26003KT 25/12 A3012 RMK A01 T02520118  RH  043%=      5-min Rain = 0
KPD2 161623Z 27004KT 25/12 A3012 RMK A01 T02530120  RH  043%=      5-min Rain = 0
KPD2 161624Z 29002KT 25/12 A3012 RMK A01 T02540119  RH  043%=      5-min Rain = 0
KPD2 161625Z 27003KT 25/12 A3012 RMK A01 T02540119  RH  043%=      5-min Rain = 0
KPD2 161626Z 28003KT 25/12 A3012 RMK A01 T02540118  RH  043%=      5-min Rain = 0
KPD2 161627Z 28001KT 25/12 A3012 RMK A01 T02540120  RH  043%=      5-min Rain = 0
KPD2 161628Z 27003KT 26/12 A3012 RMK A01 T02560120  RH  043%=      5-min Rain = 0
KPD2 161629Z 22000KT 26/12 A3012 RMK A01 T02580117  RH  042%=      5-min Rain = 0
KPD2 161630Z 26003KT 26/12 A3012 RMK A01 T02590118  RH  041%=      5-min Rain = 0
KPD2 161631Z 26003KT 26/12 A3012 RMK A01 T02590120  RH  042%=      5-min Rain = 0
KPD2 161632Z 26004KT 26/12 A3012 RMK A01 T02620119  RH  041%=      5-min Rain = 0
KPD2 161633Z 27003KT 26/12 A3012 RMK A01 T02630118  RH  041%=      5-min Rain = 0
KPD2 161634Z 28003KT 26/12 A3012 RMK A01 T02630118  RH  040%=      5-min Rain = 0
KPD2 161635Z 22003KT 26/12 A3012 RMK A01 T02630120  RH  041%=      5-min Rain = 0
KPD2 161636Z 25003KT 26/12 A3012 RMK A01 T02640118  RH  040%=      5-min Rain = 0
KPD2 161637Z 29002KT 26/12 A3012 RMK A01 T02640117  RH  040%=      5-min Rain = 0
KPD2 161638Z 30003KT 26/12 A3012 RMK A01 T02640117  RH  040%=      5-min Rain = 0
KPD2 161639Z 28001KT 26/12 A3012 RMK A01 T02640117  RH  040%=      5-min Rain = 0
KPD2 161640Z 30002KT 26/12 A3012 RMK A01 T02640119  RH  040%=      5-min Rain = 0
KPD2 161641Z 29002KT 27/12 A3012 RMK A01 T02670119  RH  040%=      5-min Rain = 0
KPD2 161642Z 25003KT 27/12 A3012 RMK A01 T02680118  RH  039%=      5-min Rain = 0
KPD2 161643Z 26001KT 27/12 A3012 RMK A01 T02680117  RH  039%=      5-min Rain = 0
KPD2 161644Z 24003KT 27/12 A3012 RMK A01 T02680117  RH  039%=      5-min Rain = 0
KPD2 161645Z 22002KT 27/12 A3012 RMK A01 T02670117  RH  039%=      5-min Rain = 0
KPD2 161646Z 21002KT 27/12 A3012 RMK A01 T02670117  RH  039%=      5-min Rain = 0
KPD2 161647Z 21004KT 27/12 A3012 RMK A01 T02670118  RH  039%=      5-min Rain = 0
KPD2 161648Z 23002KT 27/12 A3012 RMK A01 T02690120  RH  040%=      5-min Rain = 0
KPD2 161649Z 26002KT 27/12 A3012 RMK A01 T02720124  RH  040%=      5-min Rain = 0
KPD2 161650Z 30003KT 28/12 A3012 RMK A01 T02760121  RH  038%=      5-min Rain = 0
KPD2 161651Z 33004KT 28/11 A3012 RMK A01 T02770112  RH  036%=      5-min Rain = 0
KPD2 161652Z 34005KT 28/12 A3012 RMK A01 T02770116  RH  037%=      5-min Rain = 0
KPD2 161653Z 34002KT 28/11 A3012 RMK A01 T02770112  RH  036%=      5-min Rain = 0
KPD2 161654Z 34005KT 28/11 A3012 RMK A01 T02780113  RH  036%=      5-min Rain = 0
KPD2 161655Z 34006KT 28/11 A3012 RMK A01 T02800111  RH  035%=      5-min Rain = 0
KPD2 161656Z 01006KT 28/11 A3012 RMK A01 T02820111  RH  034%=      5-min Rain = 0
KPD2 161657Z 02005KT 28/11 A3012 RMK A01 T02830109  RH  034%=      5-min Rain = 0
KPD2 161658Z 02003KT 28/11 A3012 RMK A01 T02840110  RH  034%=      5-min Rain = 0
KPD2 161659Z 34005KT 29/11 A3012 RMK A01 T02860111  RH  034%=      5-min Rain = 0
KPD2 161700Z 32004G10KT 29/11 A3012 RMK A01 T02890111  RH  033%=      5-min Rain = 0
KPD2 161701Z 34007KT 29/11 A3012 RMK A01 T02910108  RH  032%=      5-min Rain = 0
KPD2 161702Z 35005KT 29/11 A3012 RMK A01 T02890106  RH  032%=      5-min Rain = 0
KPD2 161703Z 35005KT 29/11 A3012 RMK A01 T02890108  RH  032%=      5-min Rain = 0
KPD2 161704Z 36004KT 29/11 A3012 RMK A01 T02900107  RH  032%=      5-min Rain = 0
KPD2 161705Z 33005KT 29/11 A3012 RMK A01 T02900107  RH  032%=      5-min Rain = 0
KPD2 161706Z 34006KT 29/11 A3012 RMK A01 T02890106  RH  032%=      5-min Rain = 0
KPD2 161707Z 35007KT 29/11 A3012 RMK A01 T02890111  RH  033%=      5-min Rain = 0
KPD2 161708Z 33005KT 29/11 A3012 RMK A01 T02900111  RH  033%=      5-min Rain = 0
KPD2 161709Z 33003KT 29/11 A3012 RMK A01 T02900110  RH  033%=      5-min Rain = 0
KPD2 161710Z 35005G11KT 29/11 A3012 RMK A01 T02890111  RH  033%=      5-min Rain = 0
KPD2 161711Z 35008KT 29/12 A3012 RMK A01 T02920115  RH  033%=      5-min Rain = 0
KPD2 161712Z 34007KT 29/12 A3012 RMK A01 T02940115  RH  033%=      5-min Rain = 0
KPD2 161713Z 31004KT 29/11 A3012 RMK A01 T02940113  RH  033%=      5-min Rain = 0
KPD2 161714Z 34003KT 29/11 A3012 RMK A01 T02930114  RH  033%=      5-min Rain = 0
KPD2 161715Z 02004KT 29/12 A3011 RMK A01 T02920115  RH  033%=      5-min Rain = 0
KPD2 161716Z 01002KT 29/12 A3011 RMK A01 T02920115  RH  033%=      5-min Rain = 0
KPD2 161717Z 03005KT 29/12 A3012 RMK A01 T02930116  RH  034%=      5-min Rain = 0
KPD2 161718Z 05007KT 29/11 A3012 RMK A01 T02940113  RH  033%=      5-min Rain = 0
KPD2 161719Z 02005KT 29/11 A3012 RMK A01 T02940111  RH  032%=      5-min Rain = 0
KPD2 161720Z 06005KT 29/11 A3011 RMK A01 T02940112  RH  032%=      5-min Rain = 0
KPD2 161721Z 06003KT 29/11 A3011 RMK A01 T02940111  RH  032%=      5-min Rain = 0
KPD2 161722Z 34003KT 30/11 A3011 RMK A01 T02950114  RH  033%=      5-min Rain = 0
KPD2 161723Z 34005KT 30/11 A3011 RMK A01 T02970113  RH  032%=      5-min Rain = 0
KPD2 161724Z 36007KT 30/11 A3011 RMK A01 T02980113  RH  032%=      5-min Rain = 0
KPD2 161725Z 36006KT 30/11 A3011 RMK A01 T02990112  RH  031%=      5-min Rain = 0
KPD2 161726Z 05005KT 30/11 A3011 RMK A01 T02990112  RH  032%=      5-min Rain = 0
KPD2 161727Z 06004KT 30/11 A3011 RMK A01 T02990113  RH  032%=      5-min Rain = 0
KPD2 161728Z 35003G9KT 30/11 A3011 RMK A01 T02990112  RH  031%=      5-min Rain = 0
KPD2 161729Z 34004G9KT 30/11 A3011 RMK A01 T02980114  RH  032%=      5-min Rain = 0
KPD2 161730Z 33006KT 30/12 A3011 RMK A01 T02990115  RH  032%=      5-min Rain = 0
KPD2 161731Z 34009KT 30/11 A3011 RMK A01 T03010114  RH  032%=      5-min Rain = 0
KPD2 161732Z 00008KT 30/12 A3011 RMK A01 T03010116  RH  032%=      5-min Rain = 0
KPD2 161733Z 35005KT 30/12 A3011 RMK A01 T03020115  RH  032%=      5-min Rain = 0
KPD2 161734Z 34006KT 30/12 A3011 RMK A01 T03020116  RH  032%=      5-min Rain = 0
KPD2 161735Z 34004KT 30/12 A3011 RMK A01 T03020116  RH  032%=      5-min Rain = 0
KPD2 161736Z 30002KT 30/12 A3011 RMK A01 T03010116  RH  032%=      5-min Rain = 0
KPD2 161737Z 34001KT 30/12 A3011 RMK A01 T03000117  RH  032%=      5-min Rain = 0
KPD2 161738Z 05002KT 30/12 A3011 RMK A01 T03020119  RH  032%=      5-min Rain = 0
KPD2 161739Z 05004KT 31/12 A3011 RMK A01 T03060120  RH  032%=      5-min Rain = 0
KPD2 161740Z 04002KT 31/12 A3011 RMK A01 T03080118  RH  031%=      5-min Rain = 0
KPD2 161741Z 33005G10KT 31/12 A3011 RMK A01 T03080117  RH  031%=      5-min Rain = 0
KPD2 161742Z 35005G10KT 31/12 A3011 RMK A01 T03080117  RH  031%=      5-min Rain = 0
KPD2 161743Z 03007KT 31/12 A3011 RMK A01 T03070118  RH  031%=      5-min Rain = 0
KPD2 161744Z 05007KT 31/12 A3011 RMK A01 T03070118  RH  031%=      5-min Rain = 0
KPD2 161745Z 07007KT 30/12 A3011 RMK A01 T03040120  RH  032%=      5-min Rain = 0
KPD2 161746Z 05004KT 30/12 A3011 RMK A01 T03030121  RH  033%=      5-min Rain = 0
KPD2 161747Z 06004KT 30/12 A301 RMK A01 T03040119  RH  032%=      5-min Rain = 0
KPD2 161748Z 35005KT 31/12 A3011 RMK A01 T03050121  RH  032%=      5-min Rain = 0
KPD2 161749Z 02006KT 31/12 A301 RMK A01 T03060124  RH  033%=      5-min Rain = 0
KPD2 161750Z 35005KT 31/12 A301 RMK A01 T03080124  RH  032%=      5-min Rain = 0
KPD2 161751Z 35007KT 31/12 A301 RMK A01 T03080121  RH  032%=      5-min Rain = 0
KPD2 161752Z 34006KT 31/12 A301 RMK A01 T03100123  RH  032%=      5-min Rain = 0
KPD2 161753Z 34005KT 31/12 A301 RMK A01 T03110122  RH  031%=      5-min Rain = 0
KPD2 161754Z 05004KT 31/12 A3011 RMK A01 T03090118  RH  031%=      5-min Rain = 0
KPD2 161755Z 03003KT 31/11 A301 RMK A01 T03070112  RH  030%=      5-min Rain = 0
KPD2 161756Z 06004KT 31/12 A301 RMK A01 T03060115  RH  031%=      5-min Rain = 0
KPD2 161757Z 01005KT 31/12 A301 RMK A01 T03070118  RH  031%=      5-min Rain = 0
KPD2 161758Z 35006KT 31/12 A301 RMK A01 T03090119  RH  031%=      5-min Rain = 0
KPD2 161759Z 32004KT 31/12 A301 RMK A01 T03100120  RH  031%=      5-min Rain = 0
KPD2 161800Z 35007KT 31/12 A301 RMK A01 T03100115  RH  030%=      5-min Rain = 0
KPD2 161801Z 36009KT 31/11 A301 RMK A01 T03120114  RH  030%=      5-min Rain = 0
KPD2 161802Z 35011KT 32/11 A301 RMK A01 T03150113  RH  029%=      5-min Rain = 0
KPD2 161803Z 01007KT 32/11 A301 RMK A01 T03160114  RH  029%=      5-min Rain = 0
KPD2 161804Z 04004KT 32/11 A301 RMK A01 T03190114  RH  029%=      5-min Rain = 0
KPD2 161805Z 33005KT 32/11 A301 RMK A01 T03180111  RH  028%=      5-min Rain = 0
KPD2 161806Z 29005KT 31/11 A301 RMK A01 T03140107  RH  028%=      5-min Rain = 0
KPD2 161807Z 30004KT 31/11 A301 RMK A01 T03090108  RH  029%=      5-min Rain = 0
KPD2 161808Z 33005KT 31/11 A301 RMK A01 T03090112  RH  030%=      5-min Rain = 0
KPD2 161809Z 33004KT 31/11 A301 RMK A01 T03110107  RH  029%=      5-min Rain = 0
KPD2 161810Z 00003KT 31/11 A301 RMK A01 T03090105  RH  028%=      5-min Rain = 0
KPD2 161811Z 00005KT 31/11 A301 RMK A01 T03090106  RH  029%=      5-min Rain = 0
KPD2 161812Z 35004KT 31/11 A301 RMK A01 T03120106  RH  028%=      5-min Rain = 0
KPD2 161813Z 01003KT 31/10 A301 RMK A01 T03120104  RH  028%=      5-min Rain = 0
KPD2 161814Z 01002KT 31/10 A301 RMK A01 T03110103  RH  028%=      5-min Rain = 0
KPD2 161815Z 13003KT 31/10 A301 RMK A01 T03120102  RH  027%=      5-min Rain = 0
KPD2 161816Z 14004KT 32/10 A301 RMK A01 T03150101  RH  027%=      5-min Rain = 0
KPD2 161817Z 12003KT 31/11 A301 RMK A01 T03140107  RH  028%=      5-min Rain = 0
KPD2 161818Z 08001KT 31/11 A301 RMK A01 T03130108  RH  028%=      5-min Rain = 0
KPD2 161819Z 08003KT 31/11 A301 RMK A01 T03130106  RH  028%=      5-min Rain = 0
KPD2 161820Z 04003KT 31/11 A301 RMK A01 T03140105  RH  028%=      5-min Rain = 0
KPD2 161821Z 35003KT 31/10 A301 RMK A01 T03140103  RH  027%=      5-min Rain = 0
KPD2 161822Z 23002KT 32/10 A301 RMK A01 T03150100  RH  027%=      5-min Rain = 0
KPD2 161823Z 17003KT 32/10 A301 RMK A01 T03150099  RH  026%=      5-min Rain = 0
KPD2 161824Z 20001KT 31/10 A301 RMK A01 T03130096  RH  026%=      5-min Rain = 0
KPD2 161825Z 20002KT 31/10 A301 RMK A01 T03110096  RH  026%=      5-min Rain = 0
KPD2 161826Z 28007G12KT 31/10 A301 RMK A01 T03110097  RH  027%=      5-min Rain = 0
KPD2 161827Z 34005KT 31/10 A301 RMK A01 T03120100  RH  027%=      5-min Rain = 0
KPD2 161828Z 03005KT 31/11 A301 RMK A01 T03130105  RH  028%=      5-min Rain = 0
KPD2 161829Z 02004G9KT 32/11 A301 RMK A01 T03170111  RH  028%=      5-min Rain = 0
KPD2 161830Z 04003KT 32/11 A301 RMK A01 T03190112  RH  028%=      5-min Rain = 0
KPD2 161831Z 33001KT 32/11 A301 RMK A01 T03190110  RH  028%=      5-min Rain = 0
KPD2 161832Z 35005KT 32/11 A301 RMK A01 T03160110  RH  028%=      5-min Rain = 0
KPD2 161833Z 33005KT 32/11 A301 RMK A01 T03150105  RH  027%=      5-min Rain = 0
KPD2 161834Z 30002KT 31/10 A3009 RMK A01 T03140104  RH  027%=      5-min Rain = 0
KPD2 161835Z 03004KT 31/11 A3009 RMK A01 T03140105  RH  028%=      5-min Rain = 0
KPD2 161836Z 03004G9KT 32/11 A301 RMK A01 T03150105  RH  027%=      5-min Rain = 0
KPD2 161837Z 05003KT 31/11 A3009 RMK A01 T03140106  RH  028%=      5-min Rain = 0
KPD2 161838Z 05005KT 32/11 A3009 RMK A01 T03150108  RH  028%=      5-min Rain = 0
KPD2 161839Z 04002KT 32/11 A3009 RMK A01 T03160107  RH  028%=      5-min Rain = 0
KPD2 161840Z 02004KT 32/11 A3009 RMK A01 T03170109  RH  028%=      5-min Rain = 0
KPD2 161841Z 06002KT 32/11 A301 RMK A01 T03200109  RH  027%=      5-min Rain = 0
KPD2 161842Z 25001KT 32/11 A3009 RMK A01 T03230107  RH  027%=      5-min Rain = 0
KPD2 161843Z 18002KT 32/11 A3009 RMK A01 T03230106  RH  026%=      5-min Rain = 0
KPD2 161844Z 15004KT 32/11 A3009 RMK A01 T03220107  RH  027%=      5-min Rain = 0
KPD2 161845Z 15004KT 32/11 A3009 RMK A01 T03210108  RH  027%=      5-min Rain = 0
KPD2 161846Z 09006KT 32/11 A3009 RMK A01 T03200108  RH  027%=      5-min Rain = 0
KPD2 161847Z 08005KT 32/11 A3009 RMK A01 T03210106  RH  027%=      5-min Rain = 0
KPD2 161848Z 07001KT 32/10 A3009 RMK A01 T03210103  RH  026%=      5-min Rain = 0
KPD2 161849Z 35002KT 32/10 A3009 RMK A01 T03180104  RH  027%=      5-min Rain = 0
KPD2 161850Z 30001KT 32/11 A3009 RMK A01 T03200106  RH  027%=      5-min Rain = 0
KPD2 161851Z 03003KT 32/11 A3009 RMK A01 T03230108  RH  027%=      5-min Rain = 0
KPD2 161852Z 07001KT 33/11 A3009 RMK A01 T03250109  RH  027%=      5-min Rain = 0
KPD2 161853Z 04002G7KT 33/11 A3009 RMK A01 T03290109  RH  026%=      5-min Rain = 0
KPD2 161854Z 04005KT 33/11 A301 RMK A01 T03310105  RH  025%=      5-min Rain = 0
KPD2 161855Z 01006KT 33/10 A301 RMK A01 T03260102  RH  025%=      5-min Rain = 0
KPD2 161856Z 01005KT 32/10 A3009 RMK A01 T03240101  RH  025%=      5-min Rain = 0
KPD2 161857Z 36004KT 32/10 A3009 RMK A01 T03230102  RH  026%=      5-min Rain = 0
KPD2 161858Z 01007KT 32/10 A3009 RMK A01 T03230103  RH  026%=      5-min Rain = 0
KPD2 161859Z 34003KT 32/10 A3009 RMK A01 T03240103  RH  026%=      5-min Rain = 0
KPD2 161900Z 31002KT 32/10 A3009 RMK A01 T03230101  RH  025%=      5-min Rain = 0
KPD2 161901Z 24001KT 32/10 A3009 RMK A01 T03210100  RH  026%=      5-min Rain = 0
KPD2 161902Z 34001KT 32/10 A3009 RMK A01 T03190098  RH  026%=      5-min Rain = 0
KPD2 161903Z 31002KT 32/10 A3009 RMK A01 T03190103  RH  026%=      5-min Rain = 0
KPD2 161904Z 32005KT 32/10 A3009 RMK A01 T03210103  RH  026%=      5-min Rain = 0
KPD2 161905Z 31006KT 32/10 A3009 RMK A01 T03200101  RH  026%=      5-min Rain = 0
KPD2 161906Z 32007KT 32/10 A3009 RMK A01 T03180104  RH  027%=      5-min Rain = 0
KPD2 161907Z 02009KT 32/11 A3009 RMK A01 T03240109  RH  027%=      5-min Rain = 0
KPD2 161908Z 03006G11KT 33/11 A3009 RMK A01 T03260107  RH  026%=      5-min Rain = 0
KPD2 161909Z 03001KT 32/11 A3009 RMK A01 T03240106  RH  026%=      5-min Rain = 0
KPD2 161910Z 05006KT 32/11 A3009 RMK A01 T03230108  RH  027%=      5-min Rain = 0
KPD2 161911Z 06006KT 32/11 A3009 RMK A01 T03230106  RH  026%=      5-min Rain = 0
KPD2 161912Z 07004KT 32/11 A3009 RMK A01 T03200105  RH  027%=      5-min Rain = 0
KPD2 161913Z 13002KT 32/11 A3009 RMK A01 T03190107  RH  027%=      5-min Rain = 0
KPD2 161914Z 10007G12KT 32/11 A3009 RMK A01 T03200107  RH  027%=      5-min Rain = 0
KPD2 161915Z 10008G13KT 32/11 A3009 RMK A01 T03210107  RH  027%=      5-min Rain = 0
KPD2 161916Z 07003KT 32/11 A3009 RMK A01 T03220108  RH  027%=      5-min Rain = 0
KPD2 161917Z 35002KT 32/11 A3009 RMK A01 T03210105  RH  027%=      5-min Rain = 0
KPD2 161918Z 34002KT 32/11 A3009 RMK A01 T03170105  RH  027%=      5-min Rain = 0
KPD2 161919Z 29002KT 32/10 A3009 RMK A01 T03160104  RH  027%=      5-min Rain = 0
KPD2 161920Z 20002KT 32/11 A3009 RMK A01 T03150105  RH  027%=      5-min Rain = 0
KPD2 161921Z 13003KT 32/10 A3009 RMK A01 T03160103  RH  027%=      5-min Rain = 0
KPD2 161922Z 16004KT 32/11 A3009 RMK A01 T03190106  RH  027%=      5-min Rain = 0
KPD2 161923Z 17003KT 32/11 A3009 RMK A01 T03200105  RH  027%=      5-min Rain = 0
KPD2 161924Z 18003KT 32/11 A3009 RMK A01 T03200106  RH  027%=      5-min Rain = 0
KPD2 161925Z 16002KT 32/11 A3009 RMK A01 T03180105  RH  027%=      5-min Rain = 0
KPD2 161926Z 18002KT 32/11 A3009 RMK A01 T03170105  RH  027%=      5-min Rain = 0
KPD2 161927Z 17002KT 32/11 A3009 RMK A01 T03180105  RH  027%=      5-min Rain = 0
KPD2 161928Z 11007KT 32/11 A3009 RMK A01 T03220112  RH  028%=      5-min Rain = 0
KPD2 161929Z 11005KT 33/12 A3009 RMK A01 T03260117  RH  028%=      5-min Rain = 0
KPD2 161930Z 07003KT 33/12 A3009 RMK A01 T03270118  RH  028%=      5-min Rain = 0
KPD2 161931Z 35001KT 33/12 A3009 RMK A01 T03270117  RH  028%=      5-min Rain = 0
KPD2 161932Z 14003KT 33/12 A3009 RMK A01 T03260116  RH  028%=      5-min Rain = 0
KPD2 161933Z 13004KT 32/12 A3009 RMK A01 T03240116  RH  028%=      5-min Rain = 0
KPD2 161934Z 14003KT 32/11 A3009 RMK A01 T03200114  RH  028%=      5-min Rain = 0
KPD2 161935Z 11002KT 32/11 A3009 RMK A01 T03170113  RH  028%=      5-min Rain = 0
KPD2 161936Z 03001KT 31/11 A3009 RMK A01 T03140112  RH  029%=      5-min Rain = 0
KPD2 161937Z 03004KT 31/11 A3009 RMK A01 T03120114  RH  030%=      5-min Rain = 0
KPD2 161938Z 05003KT 31/11 A3009 RMK A01 T03120111  RH  029%=      5-min Rain = 0
KPD2 161939Z 01003KT 31/11 A3009 RMK A01 T03110112  RH  029%=      5-min Rain = 0
KPD2 161940Z 01001KT 31/11 A3009 RMK A01 T03120111  RH  029%=      5-min Rain = 0
KPD2 161941Z 06001KT 31/11 A3009 RMK A01 T03120110  RH  029%=      5-min Rain = 0
KPD2 161942Z 17002KT 31/11 A3009 RMK A01 T03130110  RH  029%=      5-min Rain = 0
KPD2 161943Z 13006KT 31/11 A3009 RMK A01 T03130108  RH  028%=      5-min Rain = 0
KPD2 161944Z 10007KT 31/11 A3009 RMK A01 T03130112  RH  029%=      5-min Rain = 0
KPD2 161945Z 10006KT 31/11 A3009 RMK A01 T03140114  RH  029%=      5-min Rain = 0
KPD2 161946Z 10009KT 31/11 A3009 RMK A01 T03140114  RH  029%=      5-min Rain = 0
KPD2 161947Z 10004KT 32/12 A3009 RMK A01 T03150115  RH  029%=      5-min Rain = 0
KPD2 161948Z 12009KT 32/12 A3009 RMK A01 T03150115  RH  029%=      5-min Rain = 0
KPD2 161949Z 12007KT 32/11 A3009 RMK A01 T03150114  RH  029%=      5-min Rain = 0
KPD2 161950Z 12004KT 32/11 A3009 RMK A01 T03150113  RH  029%=      5-min Rain = 0
KPD2 161951Z 09005KT 31/11 A3009 RMK A01 T03140114  RH  029%=      5-min Rain = 0
KPD2 161952Z 09004KT 31/11 A3009 RMK A01 T03140113  RH  029%=      5-min Rain = 0
KPD2 161953Z 13007G15KT 32/11 A3009 RMK A01 T03150112  RH  029%=      5-min Rain = 0
KPD2 161954Z 10008KT 32/11 A3009 RMK A01 T03170110  RH  028%=      5-min Rain = 0
KPD2 161955Z 12008KT 32/11 A3009 RMK A01 T03180114  RH  029%=      5-min Rain = 0
KPD2 161956Z 09009KT 32/11 A3009 RMK A01 T03210112  RH  028%=      5-min Rain = 0
KPD2 161957Z 12007KT 32/11 A3009 RMK A01 T03210110  RH  028%=      5-min Rain = 0
KPD2 161958Z 11010KT 32/11 A3009 RMK A01 T03200110  RH  028%=      5-min Rain = 0
KPD2 161959Z 11004KT 32/11 A3009 RMK A01 T03230110  RH  027%=      5-min Rain = 0
KPD2 162000Z 08002KT 32/11 A3009 RMK A01 T03240111  RH  027%=      5-min Rain = 0
KPD2 162001Z 13007G12KT 33/11 A3009 RMK A01 T03250112  RH  027%=      5-min Rain = 0
KPD2 162002Z 12007G12KT 33/11 A3009 RMK A01 T03250114  RH  028%=      5-min Rain = 0
KPD2 162003Z 11005KT 32/12 A3009 RMK A01 T03240116  RH  028%=      5-min Rain = 0
KPD2 162004Z 12006KT 32/12 A3009 RMK A01 T03230116  RH  028%=      5-min Rain = 0
KPD2 162005Z 13005KT 32/12 A3008 RMK A01 T03220116  RH  028%=      5-min Rain = 0
KPD2 162006Z 12005KT 32/12 A3008 RMK A01 T03220116  RH  028%=      5-min Rain = 0
KPD2 162007Z 14005KT 32/12 A3008 RMK A01 T03240115  RH  028%=      5-min Rain = 0
KPD2 162008Z 13007KT 32/12 A3008 RMK A01 T03230116  RH  028%=      5-min Rain = 0
KPD2 162009Z 12006KT 32/12 A3008 RMK A01 T03230116  RH  028%=      5-min Rain = 0
KPD2 162010Z 11008KT 32/12 A3008 RMK A01 T03230116  RH  028%=      5-min Rain = 0
KPD2 162011Z 10011KT 32/11 A3008 RMK A01 T03230113  RH  028%=      5-min Rain = 0
KPD2 162012Z 10009G14KT 32/11 A3008 RMK A01 T03210109  RH  027%=      5-min Rain = 0
KPD2 162013Z 08004KT 32/11 A3008 RMK A01 T03180110  RH  028%=      5-min Rain = 0
KPD2 162014Z 36005KT 32/11 A3008 RMK A01 T03200113  RH  028%=      5-min Rain = 0
KPD2 162015Z 01004KT 33/12 A3008 RMK A01 T03250115  RH  028%=      5-min Rain = 0
KPD2 162016Z 15001KT 33/11 A3008 RMK A01 T03290113  RH  027%=      5-min Rain = 0
KPD2 162017Z 15003KT 33/11 A3008 RMK A01 T03290111  RH  026%=      5-min Rain = 0
KPD2 162018Z 14005KT 33/11 A3008 RMK A01 T03280111  RH  027%=      5-min Rain = 0
KPD2 162019Z 16005KT 33/11 A3008 RMK A01 T03270110  RH  026%=      5-min Rain = 0
KPD2 162020Z 17004KT 32/11 A3008 RMK A01 T03220107  RH  027%=      5-min Rain = 0
KPD2 162021Z 19002KT 32/11 A3008 RMK A01 T03170106  RH  027%=      5-min Rain = 0
KPD2 162022Z 13003KT 32/10 A3008 RMK A01 T03150104  RH  027%=      5-min Rain = 0
KPD2 162023Z 12006KT 31/11 A3008 RMK A01 T03140106  RH  028%=      5-min Rain = 0
KPD2 162024Z 11009KT 32/11 A3008 RMK A01 T03160107  RH  028%=      5-min Rain = 0
KPD2 162025Z 10007KT 32/11 A3008 RMK A01 T03200107  RH  027%=      5-min Rain = 0
KPD2 162026Z 11005KT 32/11 A3008 RMK A01 T03210108  RH  027%=      5-min Rain = 0
KPD2 162027Z 10007KT 32/11 A3008 RMK A01 T03230107  RH  027%=      5-min Rain = 0
KPD2 162028Z 07003KT 32/11 A3008 RMK A01 T03230107  RH  027%=      5-min Rain = 0
KPD2 162029Z 05004KT 32/11 A3008 RMK A01 T03230109  RH  027%=      5-min Rain = 0
KPD2 162030Z 10002KT 32/11 A3008 RMK A01 T03220109  RH  027%=      5-min Rain = 0
KPD2 162031Z 13004KT 32/11 A3008 RMK A01 T03230107  RH  027%=      5-min Rain = 0
KPD2 162032Z 14006KT 32/11 A3008 RMK A01 T03240108  RH  027%=      5-min Rain = 0
KPD2 162033Z 13007KT 33/11 A3008 RMK A01 T03250109  RH  027%=      5-min Rain = 0
KPD2 162034Z 13006KT 33/11 A3008 RMK A01 T03250108  RH  026%=      5-min Rain = 0
KPD2 162035Z 16004KT 33/11 A3008 RMK A01 T03250108  RH  026%=      5-min Rain = 0
KPD2 162036Z 16008KT 33/11 A3008 RMK A01 T03250108  RH  026%=      5-min Rain = 0
KPD2 162037Z 14008KT 32/11 A3008 RMK A01 T03230106  RH  026%=      5-min Rain = 0
KPD2 162038Z 14006KT 32/11 A3008 RMK A01 T03220107  RH  027%=      5-min Rain = 0
KPD2 162039Z 17007KT 32/11 A3008 RMK A01 T03220107  RH  027%=      5-min Rain = 0
KPD2 162040Z 08009KT 32/11 A3008 RMK A01 T03200106  RH  027%=      5-min Rain = 0
KPD2 162041Z 06004KT 32/10 A3008 RMK A01 T03170102  RH  027%=      5-min Rain = 0
KPD2 162042Z 06003KT 32/10 A3008 RMK A01 T03170104  RH  027%=      5-min Rain = 0
KPD2 162043Z 36006KT 32/11 A3008 RMK A01 T03160105  RH  027%=      5-min Rain = 0
KPD2 162044Z 00005KT 31/10 A3008 RMK A01 T03140104  RH  027%=      5-min Rain = 0
KPD2 162045Z 35001KT 31/11 A3008 RMK A01 T03130105  RH  028%=      5-min Rain = 0
KPD2 162046Z 35003KT 31/11 A3008 RMK A01 T03130105  RH  028%=      5-min Rain = 0
KPD2 162047Z 12002KT 31/11 A3008 RMK A01 T03130105  RH  028%=      5-min Rain = 0
KPD2 162048Z 13001KT 31/11 A3008 RMK A01 T03130107  RH  028%=      5-min Rain = 0
KPD2 162049Z 15001KT 32/11 A3008 RMK A01 T03160107  RH  028%=      5-min Rain = 0
KPD2 162050Z 12003KT 32/11 A3008 RMK A01 T03180109  RH  028%=      5-min Rain = 0
KPD2 162051Z 13007KT 32/11 A3008 RMK A01 T03200109  RH  027%=      5-min Rain = 0
KPD2 162052Z 13007KT 32/11 A3008 RMK A01 T03210108  RH  027%=      5-min Rain = 0
KPD2 162053Z 14005KT 32/11 A3008 RMK A01 T03220107  RH  027%=      5-min Rain = 0
KPD2 162054Z 11009G15KT 32/10 A3008 RMK A01 T03240104  RH  026%=      5-min Rain = 0
KPD2 162055Z 06003KT 33/11 A3008 RMK A01 T03250105  RH  026%=      5-min Rain = 0
KPD2 162056Z 30001KT 33/10 A3008 RMK A01 T03260103  RH  025%=      5-min Rain = 0
KPD2 162057Z 23001KT 33/10 A3008 RMK A01 T03260100  RH  025%=      5-min Rain = 0
KPD2 162058Z 31002KT 33/10 A3008 RMK A01 T03250101  RH  025%=      5-min Rain = 0
KPD2 162059Z 32003KT 33/10 A3008 RMK A01 T03250102  RH  025%=      5-min Rain = 0
KPD2 162100Z 32001KT 33/10 A3008 RMK A01 T03250101  RH  025%=      5-min Rain = 0
KPD2 162101Z 17003G8KT 32/10 A3008 RMK A01 T03230101  RH  026%=      5-min Rain = 0
KPD2 162102Z 13007KT 32/10 A3008 RMK A01 T03220102  RH  026%=      5-min Rain = 0
KPD2 162103Z 08005KT 32/10 A3008 RMK A01 T03240102  RH  026%=      5-min Rain = 0
KPD2 162104Z 02009KT 33/10 A3008 RMK A01 T03250102  RH  025%=      5-min Rain = 0
KPD2 162105Z 01007KT 33/10 A3008 RMK A01 T03260100  RH  025%=      5-min Rain = 0
KPD2 162106Z 08003KT 33/10 A3008 RMK A01 T03290101  RH  025%=      5-min Rain = 0
KPD2 162107Z 02002KT 33/10 A3008 RMK A01 T03300102  RH  025%=      5-min Rain = 0
KPD2 162108Z 05005KT 33/10 A3008 RMK A01 T03280100  RH  025%=      5-min Rain = 0
KPD2 162109Z 06005KT 33/10 A3008 RMK A01 T03250100  RH  025%=      5-min Rain = 0
KPD2 162110Z 08003KT 32/10 A3008 RMK A01 T03220097  RH  025%=      5-min Rain = 0
KPD2 162111Z 33004KT 32/10 A3008 RMK A01 T03210096  RH  025%=      5-min Rain = 0
KPD2 162112Z 33005KT 32/10 A3007 RMK A01 T03210099  RH  026%=      5-min Rain = 0
KPD2 162113Z 01006KT 32/10 A3007 RMK A01 T03190100  RH  026%=      5-min Rain = 0
KPD2 162114Z 35004KT 32/10 A3008 RMK A01 T03200101  RH  026%=      5-min Rain = 0
KPD2 162115Z 03002KT 32/10 A3008 RMK A01 T03220098  RH  025%=      5-min Rain = 0
KPD2 162116Z 31004KT 33/10 A3007 RMK A01 T03250096  RH  025%=      5-min Rain = 0
KPD2 162117Z 14003KT 33/10 A3008 RMK A01 T03250096  RH  025%=      5-min Rain = 0
KPD2 162118Z 13006KT 33/10 A3008 RMK A01 T03260098  RH  025%=      5-min Rain = 0
KPD2 162119Z 14004KT 33/10 A3007 RMK A01 T03260098  RH  025%=      5-min Rain = 0
KPD2 162120Z 12008KT 32/10 A3007 RMK A01 T03230099  RH  025%=      5-min Rain = 0
KPD2 162121Z 12006G11KT 32/10 A3007 RMK A01 T03220099  RH  025%=      5-min Rain = 0
KPD2 162122Z 14006KT 32/10 A3007 RMK A01 T03220099  RH  025%=      5-min Rain = 0
KPD2 162123Z 03005KT 32/10 A3007 RMK A01 T03240100  RH  025%=      5-min Rain = 0
KPD2 162124Z 35006KT 33/10 A3007 RMK A01 T03280100  RH  025%=      5-min Rain = 0
KPD2 162125Z 02004KT 33/10 A3007 RMK A01 T03320097  RH  024%=      5-min Rain = 0
KPD2 162126Z 03003KT 33/09 A3007 RMK A01 T03340094  RH  023%=      5-min Rain = 0
KPD2 162127Z 03005KT 33/09 A3007 RMK A01 T03310093  RH  023%=      5-min Rain = 0
KPD2 162128Z 05005KT 33/09 A3007 RMK A01 T03270094  RH  024%=      5-min Rain = 0
KPD2 162129Z 03004KT 33/09 A3007 RMK A01 T03260094  RH  024%=      5-min Rain = 0
KPD2 162130Z 01002KT 33/09 A3007 RMK A01 T03280094  RH  024%=      5-min Rain = 0
KPD2 162131Z 35010KT 33/10 A3007 RMK A01 T03300095  RH  024%=      5-min Rain = 0
KPD2 162132Z 00007G12KT 33/10 A3007 RMK A01 T03300095  RH  024%=      5-min Rain = 0
KPD2 162133Z 36005KT 33/10 A3007 RMK A01 T03330098  RH  024%=      5-min Rain = 0
KPD2 162134Z 35008KT 33/10 A3007 RMK A01 T03340100  RH  024%=      5-min Rain = 0
KPD2 162135Z 35008KT 33/10 A3007 RMK A01 T03340100  RH  024%=      5-min Rain = 0
KPD2 162136Z 36010KT 33/10 A3007 RMK A01 T03330097  RH  024%=      5-min Rain = 0
KPD2 162137Z 00007KT 33/09 A3007 RMK A01 T03330094  RH  023%=      5-min Rain = 0
KPD2 162138Z 33004KT 33/09 A3007 RMK A01 T03330093  RH  023%=      5-min Rain = 0
KPD2 162139Z 30004KT 33/09 A3007 RMK A01 T03300089  RH  023%=      5-min Rain = 0
KPD2 162140Z 31001KT 32/09 A3007 RMK A01 T03240088  RH  023%=      5-min Rain = 0
KPD2 162141Z 06000KT 32/09 A3007 RMK A01 T03220088  RH  024%=      5-min Rain = 0
KPD2 162142Z 32002KT 32/09 A3007 RMK A01 T03230090  RH  024%=      5-min Rain = 0
KPD2 162143Z 32003KT 32/09 A3007 RMK A01 T03230089  RH  024%=      5-min Rain = 0
KPD2 162144Z 34008KT 32/09 A3007 RMK A01 T03210093  RH  024%=      5-min Rain = 0
KPD2 162145Z 34010G15KT 32/10 A3007 RMK A01 T03200096  RH  025%=      5-min Rain = 0
KPD2 162146Z 33011KT 32/09 A3007 RMK A01 T03200092  RH  025%=      5-min Rain = 0
KPD2 162147Z 35008KT 32/09 A3007 RMK A01 T03170090  RH  024%=      5-min Rain = 0
KPD2 162148Z 34005KT 31/09 A3007 RMK A01 T03140090  RH  025%=      5-min Rain = 0
KPD2 162149Z 35005KT 31/09 A3007 RMK A01 T03130093  RH  026%=      5-min Rain = 0
KPD2 162150Z 34010KT 31/09 A3007 RMK A01 T03130094  RH  026%=      5-min Rain = 0
KPD2 162151Z 34009G14KT 31/09 A3007 RMK A01 T03120093  RH  026%=      5-min Rain = 0
KPD2 162152Z 35009KT 31/09 A3007 RMK A01 T03110093  RH  026%=      5-min Rain = 0
KPD2 162153Z 05003KT 31/09 A3007 RMK A01 T03110093  RH  026%=      5-min Rain = 0
KPD2 162154Z 11001KT 31/09 A3007 RMK A01 T03120092  RH  026%=      5-min Rain = 0
KPD2 162155Z 24001KT 31/09 A3007 RMK A01 T03130092  RH  025%=      5-min Rain = 0
KPD2 162156Z 26002KT 31/09 A3007 RMK A01 T03130092  RH  025%=      5-min Rain = 0
KPD2 162157Z 22001KT 31/09 A3007 RMK A01 T03140093  RH  025%=      5-min Rain = 0
KPD2 162158Z 26001KT 32/09 A3007 RMK A01 T03150094  RH  025%=      5-min Rain = 0
KPD2 162159Z 33005KT 32/10 A3007 RMK A01 T03170095  RH  025%=      5-min Rain = 0
KPD2 162200Z 35012KT 32/10 A3007 RMK A01 T03190098  RH  025%=      5-min Rain = 0
KPD2 162201Z 36006KT 32/10 A3007 RMK A01 T03210097  RH  025%=      5-min Rain = 0
KPD2 162202Z 01008G14KT 32/10 A3007 RMK A01 T03210098  RH  025%=      5-min Rain = 0
KPD2 162203Z 03004KT 32/10 A3007 RMK A01 T03200095  RH  025%=      5-min Rain = 0
KPD2 162204Z 10005KT 32/10 A3007 RMK A01 T03180095  RH  025%=      5-min Rain = 0
KPD2 162205Z 07005KT 32/09 A3007 RMK A01 T03180094  RH  025%=      5-min Rain = 0
KPD2 162206Z 04005KT 32/09 A3007 RMK A01 T03170093  RH  025%=      5-min Rain = 0
KPD2 162207Z 09005KT 32/09 A3007 RMK A01 T03150093  RH  025%=      5-min Rain = 0
KPD2 162208Z 07006KT 32/09 A3007 RMK A01 T03150094  RH  025%=      5-min Rain = 0
KPD2 162209Z 04005KT 32/09 A3007 RMK A01 T03150092  RH  025%=      5-min Rain = 0
KPD2 162210Z 04005KT 31/09 A3007 RMK A01 T03120090  RH  025%=      5-min Rain = 0
KPD2 162211Z 01004KT 31/09 A3007 RMK A01 T03100091  RH  026%=      5-min Rain = 0
KPD2 162212Z 04003KT 31/09 A3007 RMK A01 T03090091  RH  026%=      5-min Rain = 0
KPD2 162213Z 11005KT 31/09 A3007 RMK A01 T03090091  RH  026%=      5-min Rain = 0
KPD2 162214Z 12003KT 31/09 A3007 RMK A01 T03110092  RH  026%=      5-min Rain = 0
KPD2 162215Z 10007KT 31/09 A3007 RMK A01 T03120093  RH  026%=      5-min Rain = 0
KPD2 162216Z 11007KT 31/09 A3007 RMK A01 T03130094  RH  026%=      5-min Rain = 0
KPD2 162217Z 12007KT 32/09 A3007 RMK A01 T03150094  RH  025%=      5-min Rain = 0
KPD2 162218Z 11005KT 32/09 A3007 RMK A01 T03170093  RH  025%=      5-min Rain = 0
KPD2 162219Z 12004KT 32/09 A3007 RMK A01 T03180092  RH  025%=      5-min Rain = 0
KPD2 162220Z 11002KT 32/09 A3007 RMK A01 T03190092  RH  025%=      5-min Rain = 0
KPD2 162221Z 15002KT 32/09 A3007 RMK A01 T03180092  RH  025%=      5-min Rain = 0
KPD2 162222Z 04003KT 32/09 A3007 RMK A01 T03190093  RH  025%=      5-min Rain = 0
KPD2 162223Z 05005KT 32/09 A3007 RMK A01 T03190093  RH  025%=      5-min Rain = 0
KPD2 162224Z 31004KT 32/09 A3007 RMK A01 T03190094  RH  025%=      5-min Rain = 0
KPD2 162225Z 03002KT 32/09 A3007 RMK A01 T03180094  RH  025%=      5-min Rain = 0
KPD2 162226Z 02003KT 32/10 A3007 RMK A01 T03200096  RH  025%=      5-min Rain = 0
KPD2 162227Z 05003KT 32/09 A3007 RMK A01 T03220093  RH  024%=      5-min Rain = 0
KPD2 162228Z 08003KT 32/09 A3007 RMK A01 T03210092  RH  024%=      5-min Rain = 0
KPD2 162229Z 08003KT 32/09 A3007 RMK A01 T03200090  RH  024%=      5-min Rain = 0
KPD2 162230Z 06001KT 32/09 A3007 RMK A01 T03180090  RH  024%=      5-min Rain = 0
KPD2 162231Z 32002KT 32/09 A3007 RMK A01 T03160090  RH  025%=      5-min Rain = 0
KPD2 162232Z 35003KT 31/09 A3007 RMK A01 T03140090  RH  025%=      5-min Rain = 0
KPD2 162233Z 00001KT 31/09 A3007 RMK A01 T03130091  RH  025%=      5-min Rain = 0
KPD2 162234Z 35003G9KT 31/09 A3007 RMK A01 T03130091  RH  025%=      5-min Rain = 0
KPD2 162235Z 02004KT 32/09 A3007 RMK A01 T03150094  RH  026%=      5-min Rain = 0
KPD2 162236Z 01003KT 32/09 A3007 RMK A01 T03170094  RH  025%=      5-min Rain = 0
KPD2 162237Z 35005KT 32/09 A3007 RMK A01 T03170094  RH  025%=      5-min Rain = 0
KPD2 162238Z 35004KT 32/09 A3007 RMK A01 T03160093  RH  025%=      5-min Rain = 0
KPD2 162239Z 32006KT 31/09 A3007 RMK A01 T03140094  RH  026%=      5-min Rain = 0
KPD2 162240Z 35006KT 31/09 A3007 RMK A01 T03120094  RH  026%=      5-min Rain = 0
KPD2 162241Z 03004KT 31/09 A3007 RMK A01 T03110094  RH  026%=      5-min Rain = 0
KPD2 162242Z 05004KT 31/09 A3007 RMK A01 T03110094  RH  026%=      5-min Rain = 0
KPD2 162243Z 10002KT 31/10 A3007 RMK A01 T03110095  RH  026%=      5-min Rain = 0
KPD2 162244Z 21001KT 31/10 A3007 RMK A01 T03120095  RH  026%=      5-min Rain = 0
KPD2 162245Z 13003G8KT 31/10 A3007 RMK A01 T03120096  RH  026%=      5-min Rain = 0
KPD2 162246Z 14005KT 31/10 A3007 RMK A01 T03120097  RH  026%=      5-min Rain = 0
KPD2 162247Z 17003G9KT 31/10 A3007 RMK A01 T03130097  RH  026%=      5-min Rain = 0
KPD2 162248Z 35004KT 31/10 A3007 RMK A01 T03140099  RH  027%=      5-min Rain = 0
KPD2 162249Z 01003KT 32/09 A3007 RMK A01 T03160094  RH  025%=      5-min Rain = 0
KPD2 162250Z 01004KT 32/09 A3007 RMK A01 T03160093  RH  025%=      5-min Rain = 0
KPD2 162251Z 35005KT 32/09 A3007 RMK A01 T03160092  RH  025%=      5-min Rain = 0
KPD2 162252Z 04007KT 32/09 A3007 RMK A01 T03170090  RH  025%=      5-min Rain = 0
KPD2 162253Z 03004KT 32/09 A3007 RMK A01 T03160089  RH  025%=      5-min Rain = 0
KPD2 162254Z 35004KT 31/09 A3007 RMK A01 T03140091  RH  025%=      5-min Rain = 0
KPD2 162255Z 35004KT 31/09 A3007 RMK A01 T03130092  RH  025%=      5-min Rain = 0
KPD2 162256Z 00005KT 31/09 A3007 RMK A01 T03130094  RH  026%=      5-min Rain = 0
KPD2 162257Z 05002KT 32/09 A3007 RMK A01 T03150093  RH  025%=      5-min Rain = 0
KPD2 162258Z 03004KT 32/09 A3007 RMK A01 T03150093  RH  025%=      5-min Rain = 0
KPD2 162259Z 06004KT 31/09 A3008 RMK A01 T03140094  RH  026%=      5-min Rain = 0
KPD2 162300Z 02002KT 31/10 A3008 RMK A01 T03140096  RH  026%=      5-min Rain = 0
KPD2 162301Z 29002G7KT 31/10 A3008 RMK A01 T03140096  RH  026%=      5-min Rain = 0
KPD2 162302Z 35006KT 31/09 A3008 RMK A01 T03120094  RH  026%=      5-min Rain = 0
KPD2 162303Z 02008KT 31/09 A3008 RMK A01 T03090094  RH  026%=      5-min Rain = 0
KPD2 162304Z 35004KT 31/09 A3008 RMK A01 T03090094  RH  026%=      5-min Rain = 0
KPD2 162305Z 29003KT 31/09 A3007 RMK A01 T03080094  RH  026%=      5-min Rain = 0
KPD2 162306Z 32004KT 31/10 A3007 RMK A01 T03070095  RH  027%=      5-min Rain = 0
KPD2 162307Z 04006KT 31/10 A3008 RMK A01 T03070096  RH  027%=      5-min Rain = 0
KPD2 162308Z 10003KT 31/10 A3008 RMK A01 T03060097  RH  027%=      5-min Rain = 0
KPD2 162309Z 11002KT 31/10 A3008 RMK A01 T03060098  RH  028%=      5-min Rain = 0
KPD2 162310Z 08003KT 31/10 A3008 RMK A01 T03060099  RH  028%=      5-min Rain = 0
KPD2 162311Z 09003KT 31/10 A3008 RMK A01 T03070098  RH  027%=      5-min Rain = 0
KPD2 162312Z 05004KT 31/10 A3008 RMK A01 T03090099  RH  027%=      5-min Rain = 0
KPD2 162313Z 04005KT 31/10 A3008 RMK A01 T03100099  RH  027%=      5-min Rain = 0
KPD2 162314Z 06003KT 31/10 A3008 RMK A01 T03100098  RH  027%=      5-min Rain = 0
KPD2 162315Z 08002G7KT 31/10 A3008 RMK A01 T03100098  RH  027%=      5-min Rain = 0
KPD2 162316Z 06003KT 31/10 A3008 RMK A01 T03100098  RH  027%=      5-min Rain = 0
KPD2 162317Z 08003KT 31/10 A3008 RMK A01 T03100097  RH  027%=      5-min Rain = 0
KPD2 162318Z 08003KT 31/10 A3008 RMK A01 T03100098  RH  027%=      5-min Rain = 0
KPD2 162319Z 01001KT 31/10 A3008 RMK A01 T03090098  RH  027%=      5-min Rain = 0
KPD2 162320Z 04002KT 31/10 A3008 RMK A01 T03090098  RH  027%=      5-min Rain = 0
KPD2 162321Z 07006KT 31/10 A3008 RMK A01 T03090097  RH  027%=      5-min Rain = 0
KPD2 162322Z 07002KT 31/10 A3008 RMK A01 T03080095  RH  027%=      5-min Rain = 0
KPD2 162323Z 32002KT 31/10 A3008 RMK A01 T03070095  RH  027%=      5-min Rain = 0
KPD2 162324Z 28000KT 31/09 A3008 RMK A01 T03060094  RH  027%=      5-min Rain = 0
KPD2 162325Z 07003KT 31/10 A3008 RMK A01 T03060095  RH  027%=      5-min Rain = 0
KPD2 162326Z 05005KT 31/10 A3008 RMK A01 T03050096  RH  027%=      5-min Rain = 0
KPD2 162327Z 06002KT 30/09 A3008 RMK A01 T03040094  RH  027%=      5-min Rain = 0
KPD2 162328Z 13003KT 30/09 A3008 RMK A01 T03030092  RH  027%=      5-min Rain = 0
KPD2 162329Z 13002KT 30/09 A3008 RMK A01 T03030092  RH  027%=      5-min Rain = 0
KPD2 162330Z 13004KT 30/09 A3008 RMK A01 T03020094  RH  027%=      5-min Rain = 0
KPD2 162331Z 12003KT 30/09 A3008 RMK A01 T03030092  RH  027%=      5-min Rain = 0
KPD2 162332Z 12005KT 30/09 A3008 RMK A01 T03030092  RH  027%=      5-min Rain = 0
KPD2 162333Z 08004G9KT 30/09 A3008 RMK A01 T03030091  RH  027%=      5-min Rain = 0
KPD2 162334Z 01003KT 30/09 A3008 RMK A01 T03040092  RH  027%=      5-min Rain = 0
KPD2 162335Z 34004KT 30/09 A3008 RMK A01 T03040093  RH  027%=      5-min Rain = 0
KPD2 162336Z 34005KT 31/09 A3008 RMK A01 T03050091  RH  027%=      5-min Rain = 0
KPD2 162337Z 35004KT 31/09 A3008 RMK A01 T03050091  RH  027%=      5-min Rain = 0
KPD2 162338Z 32000KT 31/09 A3008 RMK A01 T03050091  RH  026%=      5-min Rain = 0
KPD2 162339Z 28001KT 31/09 A3008 RMK A01 T03050091  RH  026%=      5-min Rain = 0
KPD2 162340Z 01003KT 31/09 A3008 RMK A01 T03050092  RH  027%=      5-min Rain = 0
KPD2 162341Z 12001KT 31/09 A3008 RMK A01 T03050092  RH  027%=      5-min Rain = 0
KPD2 162342Z 12001KT 31/09 A3009 RMK A01 T03060090  RH  026%=      5-min Rain = 0
KPD2 162343Z 09006KT 31/09 A3009 RMK A01 T03060094  RH  027%=      5-min Rain = 0
KPD2 162344Z 07003KT 31/10 A3009 RMK A01 T03060098  RH  028%=      5-min Rain = 0
KPD2 162345Z 04006KT 31/10 A3009 RMK A01 T03060100  RH  028%=      5-min Rain = 0
KPD2 162346Z 05004KT 31/10 A3009 RMK A01 T03050102  RH  028%=      5-min Rain = 0
KPD2 162347Z 08003KT 30/10 A3009 RMK A01 T03020102  RH  029%=      5-min Rain = 0
KPD2 162348Z 10003KT 30/10 A3009 RMK A01 T03010102  RH  029%=      5-min Rain = 0
KPD2 162349Z 31002KT 30/10 A3009 RMK A01 T03010102  RH  029%=      5-min Rain = 0
KPD2 162350Z 10002KT 30/10 A3009 RMK A01 T03000102  RH  029%=      5-min Rain = 0
KPD2 162351Z 12005KT 30/10 A3009 RMK A01 T02990102  RH  030%=      5-min Rain = 0
KPD2 162352Z 13006KT 30/10 A3009 RMK A01 T02990103  RH  030%=      5-min Rain = 0
KPD2 162353Z 11005KT 30/10 A3009 RMK A01 T02990104  RH  030%=      5-min Rain = 0
KPD2 162354Z 10005KT 30/10 A3009 RMK A01 T02980104  RH  030%=      5-min Rain = 0
KPD2 162355Z 12006KT 30/10 A3009 RMK A01 T02980103  RH  030%=      5-min Rain = 0
KPD2 162356Z 14006KT 30/10 A3009 RMK A01 T02980104  RH  030%=      5-min Rain = 0
KPD2 162357Z 14004KT 30/10 A3009 RMK A01 T02980104  RH  030%=      5-min Rain = 0
KPD2 162358Z 12004KT 30/11 A3009 RMK A01 T02980105  RH  030%=      5-min Rain = 0
KPD2 162359Z 14003KT 30/11 A3009 RMK A01 T02970105  RH  030%=      5-min Rain = 0
KPD2 170000Z 11001KT 30/11 A3009 RMK A01 T02970105  RH  030%=      5-min Rain = 0
KPD2 170001Z 05002KT 30/11 A3009 RMK A01 T02970105  RH  030%=      5-min Rain = 0
KPD2 170002Z 13003G8KT 30/11 A3009 RMK A01 T02980105  RH  030%=      5-min Rain = 0
KPD2 170003Z 03003KT 30/11 A3009 RMK A01 T02970105  RH  030%=      5-min Rain = 0
KPD2 170004Z 07002KT 30/11 A3009 RMK A01 T02970106  RH  031%=      5-min Rain = 0
KPD2 170005Z 10001KT 30/11 A3009 RMK A01 T02960106  RH  031%=      5-min Rain = 0
KPD2 170006Z 14003KT 30/11 A3009 RMK A01 T02960106  RH  031%=      5-min Rain = 0
KPD2 170007Z 13004KT 30/11 A3009 RMK A01 T02960106  RH  031%=      5-min Rain = 0
KPD2 170008Z 11001KT 30/11 A3009 RMK A01 T02960106  RH  031%=      5-min Rain = 0
KPD2 170009Z 12003KT 30/11 A3009 RMK A01 T02950106  RH  031%=      5-min Rain = 0
KPD2 170010Z 14004G9KT 30/11 A3009 RMK A01 T02950106  RH  031%=      5-min Rain = 0
KPD2 170011Z 12005KT 30/11 A3009 RMK A01 T02950105  RH  031%=      5-min Rain = 0
KPD2 170012Z 08004KT 30/11 A301 RMK A01 T02950105  RH  031%=      5-min Rain = 0
KPD2 170013Z 04002KT 29/10 A301 RMK A01 T02940104  RH  031%=      5-min Rain = 0
KPD2 170014Z 04001KT 29/10 A301 RMK A01 T02940104  RH  031%=      5-min Rain = 0
KPD2 170015Z 08003KT 29/10 A301 RMK A01 T02940104  RH  031%=      5-min Rain = 0
KPD2 170016Z 07003KT 29/10 A301 RMK A01 T02940102  RH  030%=      5-min Rain = 0
KPD2 170017Z 33005KT 29/10 A301 RMK A01 T02930102  RH  031%=      5-min Rain = 0
KPD2 170018Z 01003G8KT 29/10 A3009 RMK A01 T02930102  RH  031%=      5-min Rain = 0
KPD2 170019Z 12002KT 29/10 A301 RMK A01 T02920102  RH  031%=      5-min Rain = 0
KPD2 170020Z 12002KT 29/10 A301 RMK A01 T02920103  RH  031%=      5-min Rain = 0
KPD2 170021Z 13003KT 29/10 A301 RMK A01 T02920102  RH  031%=      5-min Rain = 0
KPD2 170022Z 13004G9KT 29/10 A301 RMK A01 T02910101  RH  031%=      5-min Rain = 0
KPD2 170023Z 09006KT 29/11 A301 RMK A01 T02910105  RH  031%=      5-min Rain = 0
KPD2 170024Z 11005KT 29/11 A301 RMK A01 T02910111  RH  033%=      5-min Rain = 0
KPD2 170025Z 11003KT 29/11 A301 RMK A01 T02900112  RH  033%=      5-min Rain = 0
KPD2 170026Z 10005KT 29/11 A301 RMK A01 T02890112  RH  033%=      5-min Rain = 0
KPD2 170027Z 09006KT 29/11 A301 RMK A01 T02880114  RH  034%=      5-min Rain = 0
KPD2 170028Z 09007KT 29/12 A301 RMK A01 T02880115  RH  034%=      5-min Rain = 0
KPD2 170029Z 07005KT 29/12 A301 RMK A01 T02870116  RH  035%=      5-min Rain = 0
KPD2 170030Z 09007KT 29/12 A301 RMK A01 T02860116  RH  035%=      5-min Rain = 0
KPD2 170031Z 09006KT 29/12 A301 RMK A01 T02860116  RH  035%=      5-min Rain = 0
KPD2 170032Z 10007KT 29/12 A301 RMK A01 T02860117  RH  035%=      5-min Rain = 0
KPD2 170033Z 11006KT 29/12 A301 RMK A01 T02860117  RH  035%=      5-min Rain = 0
KPD2 170034Z 09005KT 29/12 A301 RMK A01 T02850117  RH  035%=      5-min Rain = 0
KPD2 170035Z 09005KT 28/12 A301 RMK A01 T02840117  RH  035%=      5-min Rain = 0
KPD2 170036Z 08005KT 28/12 A301 RMK A01 T02840117  RH  035%=      5-min Rain = 0
KPD2 170037Z 09003KT 28/12 A301 RMK A01 T02840117  RH  036%=      5-min Rain = 0
KPD2 170038Z 09005KT 28/12 A301 RMK A01 T02830117  RH  036%=      5-min Rain = 0
KPD2 170039Z 10004KT 28/12 A301 RMK A01 T02830117  RH  036%=      5-min Rain = 0
KPD2 170040Z 12004KT 28/12 A301 RMK A01 T02820117  RH  036%=      5-min Rain = 0
KPD2 170041Z 12006KT 28/12 A301 RMK A01 T02820117  RH  036%=      5-min Rain = 0
KPD2 170042Z 11003KT 28/12 A301 RMK A01 T02820116  RH  036%=      5-min Rain = 0
KPD2 170043Z 11004KT 28/12 A301 RMK A01 T02810117  RH  036%=      5-min Rain = 0
KPD2 170044Z 13004KT 28/12 A301 RMK A01 T02810117  RH  036%=      5-min Rain = 0
KPD2 170045Z 12003KT 28/12 A301 RMK A01 T02810117  RH  036%=      5-min Rain = 0
KPD2 170046Z 13002KT 28/12 A301 RMK A01 T02800116  RH  036%=      5-min Rain = 0
KPD2 170047Z 11006KT 28/12 A301 RMK A01 T02790116  RH  036%=      5-min Rain = 0
KPD2 170048Z 11005KT 28/12 A301 RMK A01 T02790116  RH  037%=      5-min Rain = 0
KPD2 170049Z 12003KT 28/12 A301 RMK A01 T02780116  RH  037%=      5-min Rain = 0
KPD2 170050Z 13004KT 28/12 A301 RMK A01 T02780117  RH  037%=      5-min Rain = 0
KPD2 170051Z 12005KT 28/12 A3011 RMK A01 T02780116  RH  037%=      5-min Rain = 0
KPD2 170052Z 12004KT 28/12 A3011 RMK A01 T02770116  RH  037%=      5-min Rain = 0
KPD2 170053Z 09004KT 28/12 A3011 RMK A01 T02770116  RH  037%=      5-min Rain = 0
KPD2 170054Z 09003KT 28/12 A3011 RMK A01 T02760116  RH  037%=      5-min Rain = 0
KPD2 170055Z 10003KT 28/12 A3011 RMK A01 T02750116  RH  037%=      5-min Rain = 0
KPD2 170056Z 10004KT 28/12 A3011 RMK A01 T02750116  RH  037%=      5-min Rain = 0
KPD2 170057Z 09006KT 27/12 A3011 RMK A01 T02740116  RH  037%=      5-min Rain = 0
KPD2 170058Z 08007KT 27/12 A3011 RMK A01 T02740116  RH  037%=      5-min Rain = 0
KPD2 170059Z 09005KT 27/12 A3011 RMK A01 T02740117  RH  037%=      5-min Rain = 0
KPD2 170100Z 10007KT 28/12 A3011 RMK A01 T02750117  RH  037%=      5-min Rain = 0
KPD2 170101Z 09006KT 28/12 A3011 RMK A01 T02750117  RH  037%=      5-min Rain = 0
KPD2 170102Z 10007KT 28/12 A3011 RMK A01 T02750117  RH  037%=      5-min Rain = 0
KPD2 170103Z 11006KT 28/12 A3011 RMK A01 T02750117  RH  037%=      5-min Rain = 0
KPD2 170104Z 09006KT 28/12 A3011 RMK A01 T02750117  RH  037%=      5-min Rain = 0
KPD2 170105Z 09006KT 28/12 A3011 RMK A01 T02760118  RH  037%=      5-min Rain = 0
KPD2 170106Z 10006KT 28/12 A3011 RMK A01 T02760118  RH  037%=      5-min Rain = 0
KPD2 170107Z 10004KT 28/12 A3011 RMK A01 T02750118  RH  037%=      5-min Rain = 0
KPD2 170108Z 09006KT 28/12 A3011 RMK A01 T02750118  RH  038%=      5-min Rain = 0
KPD2 170109Z 10008KT 28/12 A3011 RMK A01 T02750118  RH  038%=      5-min Rain = 0
KPD2 170110Z 11008KT 28/12 A3011 RMK A01 T02750118  RH  038%=      5-min Rain = 0
KPD2 170111Z 10007KT 28/12 A3011 RMK A01 T02750118  RH  038%=      5-min Rain = 0
KPD2 170112Z 09006KT 28/12 A3011 RMK A01 T02750118  RH  038%=      5-min Rain = 0
KPD2 170113Z 10005KT 27/12 A3011 RMK A01 T02740118  RH  038%=      5-min Rain = 0
KPD2 170114Z 11006KT 27/12 A3012 RMK A01 T02740118  RH  038%=      5-min Rain = 0
KPD2 170115Z 09007KT 27/12 A3012 RMK A01 T02740118  RH  038%=      5-min Rain = 0
KPD2 170116Z 11008KT 27/12 A3012 RMK A01 T02740118  RH  038%=      5-min Rain = 0
KPD2 170117Z 10005KT 27/12 A3012 RMK A01 T02740119  RH  038%=      5-min Rain = 0
KPD2 170118Z 10006KT 27/12 A3012 RMK A01 T02740119  RH  038%=      5-min Rain = 0
KPD2 170119Z 10007KT 27/12 A3012 RMK A01 T02740119  RH  038%=      5-min Rain = 0
KPD2 170120Z 10007KT 27/12 A3012 RMK A01 T02740119  RH  038%=      5-min Rain = 0
KPD2 170121Z 09007KT 27/12 A3012 RMK A01 T02740119  RH  038%=      5-min Rain = 0
KPD2 170122Z 10007KT 27/12 A3012 RMK A01 T02730119  RH  038%=      5-min Rain = 0
KPD2 170123Z 10006KT 27/12 A3012 RMK A01 T02730119  RH  038%=      5-min Rain = 0
KPD2 170124Z 10007KT 27/12 A3012 RMK A01 T02720119  RH  039%=      5-min Rain = 0
KPD2 170125Z 10006KT 27/12 A3012 RMK A01 T02720120  RH  039%=      5-min Rain = 0
KPD2 170126Z 09005KT 27/12 A3012 RMK A01 T02720119  RH  039%=      5-min Rain = 0
KPD2 170127Z 09007KT 27/12 A3012 RMK A01 T02720120  RH  039%=      5-min Rain = 0
KPD2 170128Z 10006KT 27/12 A3012 RMK A01 T02710120  RH  039%=      5-min Rain = 0
KPD2 170129Z 10006KT 27/12 A3012 RMK A01 T02710120  RH  039%=      5-min Rain = 0
KPD2 170130Z 08003KT 27/12 A3012 RMK A01 T02710120  RH  039%=      5-min Rain = 0
KPD2 170131Z 09006KT 27/12 A3012 RMK A01 T02710120  RH  039%=      5-min Rain = 0
KPD2 170132Z 09005KT 27/12 A3012 RMK A01 T02710120  RH  039%=      5-min Rain = 0
KPD2 170133Z 10003KT 27/12 A3012 RMK A01 T02710120  RH  039%=      5-min Rain = 0
KPD2 170134Z 06003KT 27/12 A3012 RMK A01 T02710120  RH  039%=      5-min Rain = 0
KPD2 170135Z 07003KT 27/12 A3013 RMK A01 T02710121  RH  039%=      5-min Rain = 0
KPD2 170136Z 08006KT 27/12 A3013 RMK A01 T02700120  RH  039%=      5-min Rain = 0
KPD2 170137Z 10005KT 27/12 A3013 RMK A01 T02700121  RH  039%=      5-min Rain = 0
KPD2 170138Z 10005KT 27/12 A3013 RMK A01 T02710121  RH  039%=      5-min Rain = 0
KPD2 170139Z 11008KT 27/12 A3013 RMK A01 T02700121  RH  039%=      5-min Rain = 0
KPD2 170140Z 10006KT 27/12 A3013 RMK A01 T02700121  RH  039%=      5-min Rain = 0
KPD2 170141Z 09002KT 27/12 A3013 RMK A01 T02700121  RH  039%=      5-min Rain = 0
KPD2 170142Z 10005KT 27/12 A3013 RMK A01 T02700121  RH  040%=      5-min Rain = 0
KPD2 170143Z 10009KT 27/12 A3013 RMK A01 T02710122  RH  040%=      5-min Rain = 0
KPD2 170144Z 10008KT 27/12 A3013 RMK A01 T02700122  RH  040%=      5-min Rain = 0
KPD2 170145Z 10006KT 27/12 A3013 RMK A01 T02700122  RH  040%=      5-min Rain = 0
KPD2 170146Z 10006KT 27/12 A3013 RMK A01 T02700122  RH  040%=      5-min Rain = 0
KPD2 170147Z 10006G11KT 27/12 A3013 RMK A01 T02690122  RH  040%=      5-min Rain = 0
KPD2 170148Z 10005KT 27/12 A3013 RMK A01 T02690123  RH  040%=      5-min Rain = 0
KPD2 170149Z 10006KT 27/12 A3013 RMK A01 T02680123  RH  040%=      5-min Rain = 0
KPD2 170150Z 10006KT 27/12 A3013 RMK A01 T02680123  RH  041%=      5-min Rain = 0
KPD2 170151Z 11006KT 27/12 A3013 RMK A01 T02670123  RH  041%=      5-min Rain = 0
KPD2 170152Z 10004KT 27/12 A3013 RMK A01 T02660123  RH  041%=      5-min Rain = 0
KPD2 170153Z 12003KT 27/12 A3013 RMK A01 T02650123  RH  041%=      5-min Rain = 0
KPD2 170154Z 11003KT 27/12 A3013 RMK A01 T02650123  RH  041%=      5-min Rain = 0
KPD2 170155Z 10006KT 26/12 A3013 RMK A01 T02640124  RH  042%=      5-min Rain = 0
KPD2 170156Z 11005KT 26/13 A3014 RMK A01 T02630125  RH  042%=      5-min Rain = 0
KPD2 170157Z 10005KT 26/13 A3014 RMK A01 T02630125  RH  042%=      5-min Rain = 0
KPD2 170158Z 10007KT 26/13 A3014 RMK A01 T02630126  RH  043%=      5-min Rain = 0
KPD2 170159Z 10007KT 26/13 A3014 RMK A01 T02630127  RH  043%=      5-min Rain = 0
KPD2 170200Z 10006KT 26/13 A3014 RMK A01 T02630127  RH  043%=      5-min Rain = 0
KPD2 170201Z 11007KT 26/13 A3014 RMK A01 T02630128  RH  043%=      5-min Rain = 0
KPD2 170202Z 10006KT 26/13 A3014 RMK A01 T02620128  RH  043%=      5-min Rain = 0
KPD2 170203Z 10008KT 26/13 A3014 RMK A01 T02630129  RH  044%=      5-min Rain = 0
KPD2 170204Z 10006KT 26/13 A3014 RMK A01 T02620129  RH  044%=      5-min Rain = 0
KPD2 170205Z 11006KT 26/13 A3014 RMK A01 T02620129  RH  044%=      5-min Rain = 0
KPD2 170206Z 11005KT 26/13 A3014 RMK A01 T02620129  RH  044%=      5-min Rain = 0
KPD2 170207Z 10005KT 26/13 A3014 RMK A01 T02620130  RH  044%=      5-min Rain = 0
KPD2 170208Z 10005KT 26/13 A3014 RMK A01 T02610130  RH  044%=      5-min Rain = 0
KPD2 170209Z 11006KT 26/13 A3015 RMK A01 T02610130  RH  044%=      5-min Rain = 0
KPD2 170210Z 11007KT 26/13 A3015 RMK A01 T02610130  RH  044%=      5-min Rain = 0
KPD2 170211Z 12005KT 26/13 A3015 RMK A01 T02610131  RH  045%=      5-min Rain = 0
KPD2 170212Z 10006KT 26/13 A3015 RMK A01 T02600131  RH  045%=      5-min Rain = 0
KPD2 170213Z 10005KT 26/13 A3015 RMK A01 T02600131  RH  045%=      5-min Rain = 0
KPD2 170214Z 13003KT 26/13 A3015 RMK A01 T02600131  RH  045%=      5-min Rain = 0
KPD2 170215Z 12005KT 26/13 A3015 RMK A01 T02600131  RH  045%=      5-min Rain = 0
KPD2 170216Z 13004KT 26/13 A3015 RMK A01 T02590131  RH  045%=      5-min Rain = 0
KPD2 170217Z 14003KT 26/13 A3015 RMK A01 T02590131  RH  045%=      5-min Rain = 0
KPD2 170218Z 16004KT 26/13 A3015 RMK A01 T02580130  RH  045%=      5-min Rain = 0
KPD2 170219Z 16004KT 26/13 A3015 RMK A01 T02570129  RH  045%=      5-min Rain = 0
KPD2 170220Z 16004KT 26/13 A3015 RMK A01 T02550127  RH  045%=      5-min Rain = 0
KPD2 170221Z 16003KT 25/13 A3015 RMK A01 T02540127  RH  045%=      5-min Rain = 0
KPD2 170222Z 16004KT 25/13 A3015 RMK A01 T02530127  RH  046%=      5-min Rain = 0
KPD2 170223Z 16004KT 25/13 A3015 RMK A01 T02520127  RH  046%=      5-min Rain = 0
KPD2 170224Z 16004KT 25/13 A3015 RMK A01 T02510127  RH  046%=      5-min Rain = 0
KPD2 170225Z 16004KT 25/13 A3016 RMK A01 T02510128  RH  046%=      5-min Rain = 0
KPD2 170226Z 16003KT 25/13 A3016 RMK A01 T02500128  RH  047%=      5-min Rain = 0
KPD2 170227Z 16003KT 25/13 A3016 RMK A01 T02490128  RH  047%=      5-min Rain = 0
KPD2 170228Z 14003KT 25/13 A3016 RMK A01 T02490128  RH  047%=      5-min Rain = 0
KPD2 170229Z 15003KT 25/13 A3016 RMK A01 T02490129  RH  047%=      5-min Rain = 0
KPD2 170230Z 16003KT 25/13 A3016 RMK A01 T02490129  RH  047%=      5-min Rain = 0
KPD2 170231Z 16004KT 25/13 A3016 RMK A01 T02480130  RH  048%=      5-min Rain = 0
KPD2 170232Z 15003KT 25/13 A3016 RMK A01 T02490130  RH  048%=      5-min Rain = 0
KPD2 170233Z 15003KT 25/13 A3016 RMK A01 T02480129  RH  048%=      5-min Rain = 0
KPD2 170234Z 16003KT 25/13 A3016 RMK A01 T02480130  RH  048%=      5-min Rain = 0
KPD2 170235Z 16003KT 25/13 A3016 RMK A01 T02480129  RH  048%=      5-min Rain = 0
KPD2 170236Z 16003KT 25/13 A3016 RMK A01 T02470129  RH  048%=      5-min Rain = 0
KPD2 170237Z 16003KT 25/13 A3016 RMK A01 T02470129  RH  048%=      5-min Rain = 0
KPD2 170238Z 16003KT 25/13 A3016 RMK A01 T02460130  RH  048%=      5-min Rain = 0
KPD2 170239Z 17003KT 25/13 A3016 RMK A01 T02460130  RH  048%=      5-min Rain = 0
KPD2 170240Z 16003KT 25/13 A3016 RMK A01 T02460130  RH  048%=      5-min Rain = 0
KPD2 170241Z 16003KT 25/13 A3016 RMK A01 T02460130  RH  049%=      5-min Rain = 0
KPD2 170242Z 17003KT 25/13 A3016 RMK A01 T02450130  RH  049%=      5-min Rain = 0
KPD2 170243Z 16003KT 25/13 A3016 RMK A01 T02450131  RH  049%=      5-min Rain = 0
KPD2 170244Z 16003KT 24/13 A3016 RMK A01 T02440131  RH  049%=      5-min Rain = 0
KPD2 170245Z 15004KT 24/13 A3016 RMK A01 T02440132  RH  049%=      5-min Rain = 0
KPD2 170246Z 15003KT 24/13 A3016 RMK A01 T02440131  RH  049%=      5-min Rain = 0
KPD2 170247Z 15003KT 24/13 A3017 RMK A01 T02440131  RH  049%=      5-min Rain = 0
KPD2 170248Z 15003KT 24/13 A3017 RMK A01 T02440131  RH  050%=      5-min Rain = 0
KPD2 170249Z 15003KT 24/13 A3017 RMK A01 T02430132  RH  050%=      5-min Rain = 0
KPD2 170250Z 15003KT 24/13 A3017 RMK A01 T02430132  RH  050%=      5-min Rain = 0
KPD2 170251Z 15003KT 24/13 A3017 RMK A01 T02430132  RH  050%=      5-min Rain = 0
KPD2 170252Z 15003KT 24/13 A3017 RMK A01 T02420132  RH  050%=      5-min Rain = 0
KPD2 170253Z 15003KT 24/13 A3017 RMK A01 T02420132  RH  050%=      5-min Rain = 0
KPD2 170254Z 15003KT 24/13 A3017 RMK A01 T02410133  RH  051%=      5-min Rain = 0
KPD2 170255Z 15002KT 24/13 A3017 RMK A01 T02410133  RH  051%=      5-min Rain = 0
KPD2 170256Z 14003KT 24/13 A3017 RMK A01 T02410133  RH  051%=      5-min Rain = 0
KPD2 170257Z 15003KT 24/13 A3017 RMK A01 T02410133  RH  051%=      5-min Rain = 0
KPD2 170258Z 15004KT 24/13 A3017 RMK A01 T02400134  RH  051%=      5-min Rain = 0
KPD2 170259Z 15004KT 24/14 A3017 RMK A01 T02400135  RH  052%=      5-min Rain = 0
KPD2 170300Z 16004KT 24/14 A3017 RMK A01 T02410135  RH  052%=      5-min Rain = 0
KPD2 170301Z 15005KT 24/14 A3017 RMK A01 T02410135  RH  051%=      5-min Rain = 0
KPD2 170302Z 14004KT 24/14 A3017 RMK A01 T02410135  RH  051%=      5-min Rain = 0
KPD2 170303Z 14004KT 24/14 A3017 RMK A01 T02410135  RH  052%=      5-min Rain = 0
KPD2 170304Z 15004KT 24/14 A3017 RMK A01 T02410136  RH  052%=      5-min Rain = 0
KPD2 170305Z 15005KT 24/14 A3017 RMK A01 T02410137  RH  052%=      5-min Rain = 0
KPD2 170306Z 13004KT 24/14 A3017 RMK A01 T02410137  RH  052%=      5-min Rain = 0
KPD2 170307Z 15004KT 24/14 A3017 RMK A01 T02420137  RH  052%=      5-min Rain = 0
KPD2 170308Z 15004KT 24/14 A3017 RMK A01 T02420139  RH  053%=      5-min Rain = 0
KPD2 170309Z 15004KT 24/14 A3017 RMK A01 T02420138  RH  052%=      5-min Rain = 0
KPD2 170310Z 15004KT 24/14 A3017 RMK A01 T02410138  RH  052%=      5-min Rain = 0
KPD2 170311Z 16003KT 24/14 A3017 RMK A01 T02410137  RH  052%=      5-min Rain = 0
KPD2 170312Z 15003KT 24/14 A3017 RMK A01 T02410137  RH  052%=      5-min Rain = 0
KPD2 170313Z 14004KT 24/14 A3017 RMK A01 T02400138  RH  053%=      5-min Rain = 0
KPD2 170314Z 14004KT 24/14 A3017 RMK A01 T02390140  RH  054%=      5-min Rain = 0
KPD2 170315Z 16003KT 24/14 A3017 RMK A01 T02390141  RH  054%=      5-min Rain = 0
KPD2 170316Z 16004KT 24/14 A3017 RMK A01 T02390140  RH  054%=      5-min Rain = 0
KPD2 170317Z 15004KT 24/14 A3017 RMK A01 T02390140  RH  054%=      5-min Rain = 0
KPD2 170318Z 16004KT 24/14 A3017 RMK A01 T02390141  RH  054%=      5-min Rain = 0
KPD2 170319Z 15006KT 24/14 A3017 RMK A01 T02380142  RH  055%=      5-min Rain = 0
KPD2 170320Z 15005KT 24/14 A3018 RMK A01 T02390141  RH  054%=      5-min Rain = 0
KPD2 170321Z 15005KT 24/14 A3018 RMK A01 T02390142  RH  054%=      5-min Rain = 0
KPD2 170322Z 15005KT 24/14 A3018 RMK A01 T02380141  RH  055%=      5-min Rain = 0
KPD2 170323Z 15005KT 24/14 A3018 RMK A01 T02380143  RH  055%=      5-min Rain = 0
KPD2 170324Z 15004KT 24/14 A3018 RMK A01 T02380142  RH  055%=      5-min Rain = 0
KPD2 170325Z 14004KT 24/14 A3018 RMK A01 T02380142  RH  055%=      5-min Rain = 0
KPD2 170326Z 15004KT 24/14 A3018 RMK A01 T02380142  RH  055%=      5-min Rain = 0
KPD2 170327Z 15003KT 24/14 A3018 RMK A01 T02380142  RH  055%=      5-min Rain = 0
KPD2 170328Z 14004KT 24/14 A3018 RMK A01 T02370143  RH  055%=      5-min Rain = 0
KPD2 170329Z 15004KT 24/14 A3018 RMK A01 T02370143  RH  056%=      5-min Rain = 0
KPD2 170330Z 15004KT 24/14 A3018 RMK A01 T02370143  RH  056%=      5-min Rain = 0
KPD2 170331Z 14003KT 24/14 A3018 RMK A01 T02360143  RH  056%=      5-min Rain = 0
KPD2 170332Z 13004KT 24/14 A3018 RMK A01 T02360144  RH  056%=      5-min Rain = 0
KPD2 170333Z 14004KT 24/15 A3018 RMK A01 T02350145  RH  057%=      5-min Rain = 0
KPD2 170334Z 14004KT 24/15 A3018 RMK A01 T02360145  RH  057%=      5-min Rain = 0
KPD2 170335Z 14003KT 24/15 A3018 RMK A01 T02360145  RH  057%=      5-min Rain = 0
KPD2 170336Z 13003KT 24/15 A3018 RMK A01 T02350145  RH  057%=      5-min Rain = 0
KPD2 170337Z 13004KT 24/15 A3018 RMK A01 T02350145  RH  057%=      5-min Rain = 0
KPD2 170338Z 12004KT 24/15 A3018 RMK A01 T02350145  RH  057%=      5-min Rain = 0
KPD2 170339Z 13004KT 23/15 A3018 RMK A01 T02340145  RH  057%=      5-min Rain = 0
KPD2 170340Z 12004KT 23/15 A3018 RMK A01 T02330145  RH  057%=      5-min Rain = 0
KPD2 170341Z 12004KT 23/14 A3018 RMK A01 T02320144  RH  057%=      5-min Rain = 0
KPD2 170342Z 13004KT 23/14 A3018 RMK A01 T02320144  RH  058%=      5-min Rain = 0
KPD2 170343Z 12004KT 23/14 A3018 RMK A01 T02320144  RH  058%=      5-min Rain = 0
KPD2 170344Z 12004KT 23/14 A3018 RMK A01 T02310144  RH  058%=      5-min Rain = 0
KPD2 170345Z 12004KT 23/14 A3018 RMK A01 T02310144  RH  058%=      5-min Rain = 0
KPD2 170346Z 12003KT 23/14 A3018 RMK A01 T02290144  RH  059%=      5-min Rain = 0
KPD2 170347Z 12004KT 23/14 A3018 RMK A01 T02290144  RH  059%=      5-min Rain = 0
KPD2 170348Z 12004KT 23/14 A3018 RMK A01 T02290144  RH  059%=      5-min Rain = 0
KPD2 170349Z 12003KT 23/15 A3018 RMK A01 T02280145  RH  059%=      5-min Rain = 0
KPD2 170350Z 12003KT 23/15 A3018 RMK A01 T02280145  RH  059%=      5-min Rain = 0
KPD2 170351Z 11003KT 23/15 A3018 RMK A01 T02280145  RH  060%=      5-min Rain = 0
KPD2 170352Z 11003KT 23/15 A3018 RMK A01 T02280146  RH  060%=      5-min Rain = 0
KPD2 170353Z 12003KT 23/15 A3018 RMK A01 T02270145  RH  060%=      5-min Rain = 0
KPD2 170354Z 11003KT 23/15 A3018 RMK A01 T02270146  RH  060%=      5-min Rain = 0
KPD2 170355Z 10003KT 23/15 A3018 RMK A01 T02270146  RH  060%=      5-min Rain = 0
KPD2 170356Z 10003KT 23/15 A3018 RMK A01 T02280146  RH  060%=      5-min Rain = 0
KPD2 170357Z 10002KT 23/15 A3018 RMK A01 T02280147  RH  060%=      5-min Rain = 0
KPD2 170358Z 11003KT 23/15 A3018 RMK A01 T02290147  RH  060%=      5-min Rain = 0
KPD2 170359Z 12002KT 23/15 A3018 RMK A01 T02290146  RH  060%=      5-min Rain = 0
KPD2 170400Z 12003KT 23/15 A3018 RMK A01 T02290146  RH  060%=      5-min Rain = 0
KPD2 170401Z 13003KT 23/15 A3018 RMK A01 T02290146  RH  060%=      5-min Rain = 0
KPD2 170402Z 13004KT 23/15 A3019 RMK A01 T02290147  RH  060%=      5-min Rain = 0
KPD2 170403Z 12004KT 23/15 A3019 RMK A01 T02290147  RH  060%=      5-min Rain = 0
KPD2 170404Z 13003KT 23/15 A3019 RMK A01 T02290147  RH  060%=      5-min Rain = 0
KPD2 170405Z 12003KT 23/15 A3019 RMK A01 T02290147  RH  060%=      5-min Rain = 0
KPD2 170406Z 12003KT 23/15 A3019 RMK A01 T02290147  RH  060%=      5-min Rain = 0
KPD2 170407Z 13002KT 23/15 A3019 RMK A01 T02290147  RH  060%=      5-min Rain = 0
KPD2 170408Z 14002KT 23/15 A3019 RMK A01 T02280147  RH  060%=      5-min Rain = 0
KPD2 170409Z 14002KT 23/15 A3019 RMK A01 T02280147  RH  060%=      5-min Rain = 0
KPD2 170410Z 13003KT 23/15 A3019 RMK A01 T02270147  RH  060%=      5-min Rain = 0
KPD2 170411Z 11002KT 23/15 A3019 RMK A01 T02270147  RH  061%=      5-min Rain = 0
KPD2 170412Z 10003KT 23/15 A3019 RMK A01 T02270147  RH  061%=      5-min Rain = 0
KPD2 170413Z 10003KT 23/15 A3019 RMK A01 T02270147  RH  061%=      5-min Rain = 0
KPD2 170414Z 11003KT 23/15 A3019 RMK A01 T02270147  RH  061%=      5-min Rain = 0
KPD2 170415Z 11004KT 23/15 A3019 RMK A01 T02260148  RH  061%=      5-min Rain = 0
KPD2 170416Z 10004KT 23/15 A3019 RMK A01 T02260148  RH  061%=      5-min Rain = 0
KPD2 170417Z 10005KT 23/15 A3019 RMK A01 T02270149  RH  062%=      5-min Rain = 0
KPD2 170418Z 10004KT 23/15 A3019 RMK A01 T02280151  RH  062%=      5-min Rain = 0
KPD2 170419Z 10005KT 23/15 A3019 RMK A01 T02300151  RH  061%=      5-min Rain = 0
KPD2 170420Z 10005KT 23/15 A3019 RMK A01 T02310151  RH  061%=      5-min Rain = 0
KPD2 170421Z 10005KT 23/15 A3019 RMK A01 T02320151  RH  060%=      5-min Rain = 0
KPD2 170422Z 10005KT 23/15 A3019 RMK A01 T02320151  RH  060%=      5-min Rain = 0
KPD2 170423Z 10005KT 23/15 A3019 RMK A01 T02330151  RH  060%=      5-min Rain = 0
KPD2 170424Z 10004KT 23/15 A3019 RMK A01 T02340152  RH  060%=      5-min Rain = 0
KPD2 170425Z 10003KT 23/15 A3019 RMK A01 T02340151  RH  060%=      5-min Rain = 0
KPD2 170426Z 11004KT 23/15 A3019 RMK A01 T02340151  RH  060%=      5-min Rain = 0
KPD2 170427Z 10004KT 23/15 A3019 RMK A01 T02330151  RH  060%=      5-min Rain = 0
KPD2 170428Z 10004KT 23/15 A3019 RMK A01 T02330151  RH  060%=      5-min Rain = 0
KPD2 170429Z 12003KT 23/15 A3019 RMK A01 T02320151  RH  060%=      5-min Rain = 0
KPD2 170430Z 10003KT 23/15 A3019 RMK A01 T02320150  RH  060%=      5-min Rain = 0
KPD2 170431Z 10003KT 23/15 A3019 RMK A01 T02310149  RH  060%=      5-min Rain = 0
KPD2 170432Z 09004KT 23/15 A3019 RMK A01 T02310151  RH  061%=      5-min Rain = 0
KPD2 170433Z 10004KT 23/15 A3019 RMK A01 T02310151  RH  061%=      5-min Rain = 0
KPD2 170434Z 11003KT 23/15 A3019 RMK A01 T02300150  RH  061%=      5-min Rain = 0
KPD2 170435Z 11003KT 23/15 A3019 RMK A01 T02310151  RH  061%=      5-min Rain = 0
KPD2 170436Z 06001KT 23/15 A3019 RMK A01 T02310150  RH  060%=      5-min Rain = 0
KPD2 170437Z 10002KT 23/15 A3019 RMK A01 T02310149  RH  060%=      5-min Rain = 0
KPD2 170438Z 13001KT 23/15 A3019 RMK A01 T02290147  RH  060%=      5-min Rain = 0
KPD2 170439Z 14002KT 23/15 A3019 RMK A01 T02270147  RH  061%=      5-min Rain = 0
KPD2 170440Z 14001KT 23/15 A3019 RMK A01 T02260147  RH  061%=      5-min Rain = 0
KPD2 170441Z 13001KT 22/15 A3019 RMK A01 T02240146  RH  061%=      5-min Rain = 0
KPD2 170442Z 14001KT 22/15 A3019 RMK A01 T02230146  RH  062%=      5-min Rain = 0
KPD2 170443Z 14001KT 22/15 A3019 RMK A01 T02220147  RH  062%=      5-min Rain = 0
KPD2 170444Z 14001KT 22/15 A3019 RMK A01 T02210146  RH  063%=      5-min Rain = 0
KPD2 170445Z 14000KT 22/15 A3019 RMK A01 T02200146  RH  063%=      5-min Rain = 0
KPD2 170446Z 00000KT 22/15 A302 RMK A01 T02190146  RH  063%=      5-min Rain = 0
KPD2 170447Z 00000KT 22/15 A302 RMK A01 T02180145  RH  063%=      5-min Rain = 0
KPD2 170448Z 14000KT 22/15 A302 RMK A01 T02170145  RH  063%=      5-min Rain = 0
KPD2 170449Z 14000KT 22/14 A302 RMK A01 T02160144  RH  064%=      5-min Rain = 0
KPD2 170450Z 00000KT 22/15 A302 RMK A01 T02150145  RH  064%=      5-min Rain = 0
KPD2 170451Z 00000KT 21/15 A302 RMK A01 T02130145  RH  065%=      5-min Rain = 0
KPD2 170452Z 00000KT 21/15 A302 RMK A01 T02130146  RH  066%=      5-min Rain = 0
KPD2 170453Z 00000KT 21/15 A302 RMK A01 T02130146  RH  066%=      5-min Rain = 0
KPD2 170454Z 00000KT 21/15 A302 RMK A01 T02120146  RH  066%=      5-min Rain = 0
KPD2 170455Z 00000KT 21/15 A302 RMK A01 T02110146  RH  066%=      5-min Rain = 0
KPD2 170456Z 14000KT 21/15 A302 RMK A01 T02100145  RH  066%=      5-min Rain = 0
KPD2 170457Z 14001KT 21/15 A302 RMK A01 T02100146  RH  067%=      5-min Rain = 0
KPD2 170458Z 14000KT 21/15 A302 RMK A01 T02090145  RH  067%=      5-min Rain = 0
KPD2 170459Z 00000KT 21/15 A302 RMK A01 T02080146  RH  068%=      5-min Rain = 0

Page generated in 0.0701 seconds.